M I D A S
Marine Information and Data Acquisition System
Tripno 1828 of the Zeeleeuw from 2009-12-17 07:39:48 to 2009-12-17 15:53:17
Back to CruiseResearch ActivitiesStationsMapUnderway DataData graphs

EquipmentUnitsComment
TimeDGPSUTC
LatitudeDGPSDM.mWGS84
LongitudeDGPSDM.mWGS84
TemperatureSBE03/SBE38deg celciusITS90
ConductivitySBE21S/mITS90
SalinitySBE21 Practical Salinity Units
ChlorophylAChelsea fluorimeterg/lCalibrated in Aceton
Missing or incorrect values are displayed as -999
Sea surface data collected by the RV Zeeleeuw from 2009-12-17 07:59:56 to 2009-12-17 16:00:49
                                                                                    Next 1000 lines
Time Latitude Longitude Temperature Conductivity Salinity ChlorophylA
2009-12-17 08:00:07 51°13.662 2°55.957 14.5303 0.027184 0.179922 1.088875
2009-12-17 08:00:12 51°13.662 2°55.956 14.5915 0.026052 0.172249 1.088875
2009-12-17 08:00:17 51°13.663 2°55.954 14.6472 0.026772 0.177119 1.088875
2009-12-17 08:00:22 51°13.664 2°55.951 14.6756 0.026464 0.175027 1.088875
2009-12-17 08:00:27 51°13.665 2°55.948 14.669 0.026258 0.173636 1.088875
2009-12-17 08:00:32 51°13.666 2°55.944 14.6552 0.026464 0.175027 1.088875
2009-12-17 08:00:38 51°13.667 2°55.938 14.6529 0.026464 0.175027 1.088875
2009-12-17 08:00:43 51°13.668 2°55.933 14.6484 0.026052 0.172241 1.088875
2009-12-17 08:00:49 51°13.67 2°55.926 14.6904 0.026567 0.175723 1.088875
2009-12-17 08:00:55 51°13.672 2°55.919 14.7018 0.026567 0.175727 1.088875
2009-12-17 08:01:00 51°13.673 2°55.913 14.6874 0.026464 0.175031 1.088875
2009-12-17 08:01:06 51°13.674 2°55.905 14.6891 0.026464 0.175031 1.088875
2009-12-17 08:01:11 51°13.676 2°55.899 14.6818 0.026464 0.175031 1.088875
2009-12-17 08:01:16 51°13.677 2°55.892 14.7101 0.026258 0.173636 1.088875
2009-12-17 08:01:20 51°13.678 2°55.887 14.711 0.026464 0.175027 1.088875
2009-12-17 08:01:26 51°13.68 2°55.878 14.7007 0.026464 0.175027 1.088875
2009-12-17 08:01:31 51°13.681 2°55.871 14.7139 0.026361 0.174331 1.088875
2009-12-17 08:01:36 51°13.683 2°55.863 14.7291 0.026361 0.174331 1.088875
2009-12-17 08:01:40 51°13.684 2°55.857 14.7403 0.026361 0.174331 1.088875
2009-12-17 08:01:46 51°13.686 2°55.848 14.7732 0.026567 0.175727 1.088875
2009-12-17 08:01:51 51°13.688 2°55.841 14.7409 0.026464 0.175031 1.088875
2009-12-17 08:01:56 51°13.69 2°55.833 14.7293 0.026361 0.174335 1.088875
2009-12-17 08:02:00 51°13.692 2°55.826 14.7251 0.026361 0.174335 1.088875
2009-12-17 08:02:06 51°13.695 2°55.817 14.7295 0.026361 0.174335 1.088875
2009-12-17 08:02:11 51°13.698 2°55.809 14.7345 0.026361 0.174335 1.088875
2009-12-17 08:02:16 51°13.701 2°55.801 14.7487 0.026361 0.174339 1.088875
2009-12-17 08:02:20 51°13.704 2°55.794 14.7662 0.026464 0.175035 1.088875
2009-12-17 08:02:26 51°13.708 2°55.785 14.7571 0.026464 0.175039 1.088875
2009-12-17 08:02:31 51°13.712 2°55.777 14.7375 0.026155 0.172956 1.088875
2009-12-17 08:02:36 51°13.716 2°55.769 14.7329 0.026258 0.173647 1.088875
2009-12-17 08:02:40 51°13.72 2°55.763 14.7326 0.026258 0.173647 1.088875
2009-12-17 08:02:46 51°13.725 2°55.753 14.7434 0.026258 0.173647 1.088875
2009-12-17 08:02:51 51°13.73 2°55.746 14.7551 0.026258 0.173651 1.088875
2009-12-17 08:02:56 51°13.734 2°55.738 14.7499 0.026361 0.174351 1.088875
2009-12-17 08:03:00 51°13.738 2°55.732 14.7444 0.025949 0.171565 1.088875
2009-12-17 08:03:06 51°13.744 2°55.723 14.6899 0.026155 0.172956 1.088875
2009-12-17 08:03:11 51°13.749 2°55.715 14.7177 0.026155 0.172956 1.088875
2009-12-17 08:03:16 51°13.755 2°55.708 14.7126 0.026052 0.172256 1.088875
2009-12-17 08:03:20 51°13.759 2°55.702 14.7821 0.025949 0.171561 1.088875
2009-12-17 08:03:26 51°13.765 2°55.693 14.7775 0.026258 0.173651 1.088875
2009-12-17 08:03:31 51°13.771 2°55.686 14.7693 0.026361 0.174351 1.088875
2009-12-17 08:03:36 51°13.776 2°55.679 14.7866 0.026464 0.175051 1.088875
2009-12-17 08:03:40 51°13.781 2°55.674 14.7967 0.026464 0.175051 1.088875
2009-12-17 08:03:46 51°13.788 2°55.667 14.798 0.026464 0.175063 1.088875
2009-12-17 08:03:51 51°13.794 2°55.661 14.7481 0.02667 0.176455 1.088875
2009-12-17 08:03:56 51°13.8 2°55.655 14.7549 0.026155 0.172967 1.088875
2009-12-17 08:04:00 51°13.805 2°55.651 14.7581 0.026258 0.173659 1.088875
2009-12-17 08:04:06 51°13.812 2°55.646 14.7617 0.026155 0.17296 1.088875
2009-12-17 08:04:11 51°13.819 2°55.642 14.7474 0.026155 0.17296 1.088875
2009-12-17 08:04:16 51°13.826 2°55.638 14.7632 0.026258 0.173655 1.088875
2009-12-17 08:04:20 51°13.831 2°55.636 14.7613 0.025949 0.171572 1.088875
2009-12-17 08:04:26 51°13.839 2°55.633 14.7899 0.026155 0.172963 1.088875
2009-12-17 08:04:31 51°13.846 2°55.631 14.7553 0.025949 0.171569 1.088875
2009-12-17 08:04:36 51°13.853 2°55.629 14.7899 0.026155 0.172967 1.088875
2009-12-17 08:04:40 51°13.859 2°55.629 14.8094 0.026155 0.172967 1.088875
2009-12-17 08:04:46 51°13.867 2°55.628 14.8253 0.026772 0.177163 1.088875
2009-12-17 08:04:51 51°13.873 2°55.629 14.8325 0.026875 0.177872 1.088875
2009-12-17 08:04:55 51°13.878 2°55.629 14.8294 0.026978 0.178576 1.088875
2009-12-17 08:05:01 51°13.885 2°55.63 14.8234 0.026772 0.177183 1.088875
2009-12-17 08:05:06 51°13.891 2°55.632 14.833 0.026772 0.177183 1.088875
2009-12-17 08:05:11 51°13.896 2°55.634 14.8221 0.026772 0.177183 1.088875
2009-12-17 08:05:16 51°13.902 2°55.636 14.8203 0.026875 0.17788 1.088875
2009-12-17 08:05:20 51°13.906 2°55.638 14.8487 0.026978 0.17858 1.088875
2009-12-17 08:05:26 51°13.911 2°55.641 14.8499 0.027287 0.180675 1.088875
2009-12-17 08:05:31 51°13.916 2°55.643 14.8434 0.027287 0.180683 1.088875
2009-12-17 08:05:36 51°13.92 2°55.646 14.8395 0.02739 0.181389 1.088875
2009-12-17 08:05:40 51°13.923 2°55.648 14.8302 0.02739 0.181389 1.088875
2009-12-17 08:05:46 51°13.927 2°55.651 14.8533 0.027287 0.180692 1.088875
2009-12-17 08:05:51 51°13.93 2°55.654 14.8449 0.02739 0.181389 1.088875
2009-12-17 08:05:55 51°13.932 2°55.656 14.8402 0.027596 0.182792 1.088875
2009-12-17 08:06:00 51°13.935 2°55.657 14.8409 0.027596 0.182792 1.088875
2009-12-17 08:06:05 51°13.937 2°55.659 14.8493 0.027596 0.182792 1.088875
2009-12-17 08:06:10 51°13.938 2°55.66 14.8451 0.027699 0.183494 1.088875
2009-12-17 08:06:15 51°13.939 2°55.66 14.8413 0.027904 0.184894 1.088875
2009-12-17 08:06:20 51°13.94 2°55.66 14.8415 0.027699 0.183494 1.088875
2009-12-17 08:06:24 51°13.94 2°55.66 14.8396 0.027596 0.182792 1.088875
2009-12-17 08:06:29 51°13.941 2°55.658 14.8383 0.027493 0.18209 1.088875
2009-12-17 08:06:34 51°13.941 2°55.656 14.8282 0.02739 0.181389 1.088875
2009-12-17 08:06:39 51°13.941 2°55.654 14.8218 0.02739 0.181389 1.088875
2009-12-17 08:06:44 51°13.942 2°55.651 14.6331 0.026978 0.178596 1.088875
2009-12-17 08:06:48 51°13.942 2°55.648 14.6098 0.026361 0.17439 1.088875
2009-12-17 08:06:54 51°13.943 2°55.643 14.4567 0.025538 0.168807 1.088875
2009-12-17 08:06:59 51°13.944 2°55.639 14.687 0.025846 0.17087 1.088875
2009-12-17 08:07:03 51°13.944 2°55.635 14.4121 0.024097 0.159028 1.088875
2009-12-17 08:07:08 51°13.946 2°55.629 14.5641 0.024097 0.159028 1.088875
2009-12-17 08:07:13 51°13.948 2°55.623 14.5969 0.025435 0.168022 1.088875
2009-12-17 08:07:18 51°13.951 2°55.617 14.6825 0.025332 0.167347 1.088875
2009-12-17 08:07:23 51°13.954 2°55.611 14.7357 0.026464 0.175031 1.088875
2009-12-17 08:07:27 51°13.958 2°55.606 14.7526 0.026978 0.178556 1.088875
2009-12-17 08:07:32 51°13.963 2°55.6 14.7443 0.026567 0.175782 1.088875
2009-12-17 08:07:37 51°13.968 2°55.593 14.7451 0.026567 0.175782 1.088875
2009-12-17 08:07:42 51°13.974 2°55.586 14.7468 0.026978 0.178576 1.088875
2009-12-17 08:07:47 51°13.98 2°55.579 14.7474 0.027081 0.179285 1.088875
2009-12-17 08:07:52 51°13.987 2°55.571 14.7412 0.026772 0.177199 1.088875
2009-12-17 08:07:57 51°13.995 2°55.563 14.7004 0.026567 0.175794 1.123699
2009-12-17 08:08:02 51°14.002 2°55.554 14.7139 0.026258 0.173702 1.088875
2009-12-17 08:08:07 51°14.01 2°55.545 14.6952 0.026258 0.173702 1.088875
2009-12-17 08:08:12 51°14.019 2°55.536 14.7045 0.026258 0.173698 1.088875
2009-12-17 08:08:17 51°14.027 2°55.526 14.6853 0.025949 0.171607 1.088875
2009-12-17 08:08:22 51°14.036 2°55.516 14.6378 0.026052 0.172299 1.088875
2009-12-17 08:08:27 51°14.045 2°55.506 14.6367 0.025435 0.16812 1.088875
2009-12-17 08:08:32 51°14.054 2°55.495 14.6082 0.02564 0.169495 1.088875
2009-12-17 08:08:37 51°14.064 2°55.485 14.6352 0.02564 0.169495 1.088875
2009-12-17 08:08:42 51°14.073 2°55.474 14.5908 0.025229 0.166705 1.088875
2009-12-17 08:08:47 51°14.083 2°55.463 14.6189 0.025743 0.170182 1.088875
2009-12-17 08:08:52 51°14.093 2°55.453 14.668 0.025023 0.165316 1.123699
2009-12-17 08:08:56 51°14.1 2°55.444 14.6721 0.025023 0.165287 1.088875
2009-12-17 08:09:02 51°14.112 2°55.431 14.6261 0.025332 0.167373 1.088875
2009-12-17 08:09:07 51°14.122 2°55.42 14.5313 0.025332 0.167373 1.088875
2009-12-17 08:09:12 51°14.132 2°55.409 14.6078 0.024714 0.163187 1.088875
2009-12-17 08:09:17 51°14.142 2°55.398 14.6408 0.025332 0.167362 1.088875
2009-12-17 08:09:22 51°14.152 2°55.388 14.5818 0.02492 0.164593 1.088875
2009-12-17 08:09:27 51°14.162 2°55.376 14.5184 0.025332 0.167365 1.088875
2009-12-17 08:09:32 51°14.172 2°55.366 14.5567 0.025332 0.167365 1.088875
2009-12-17 08:09:37 51°14.182 2°55.355 14.6475 0.025332 0.16738 1.088875
2009-12-17 08:09:42 51°14.192 2°55.344 14.6421 0.025743 0.170182 1.088875
2009-12-17 08:09:47 51°14.202 2°55.333 14.528 0.025332 0.16741 1.088875
2009-12-17 08:09:52 51°14.212 2°55.321 14.6514 0.025435 0.168079 1.088875
2009-12-17 08:09:56 51°14.22 2°55.311 14.6948 0.026464 0.175074 1.088875
2009-12-17 08:10:02 51°14.232 2°55.298 14.5121 0.025332 0.167436 1.088875
2009-12-17 08:10:07 51°14.242 2°55.286 14.5385 0.025332 0.167436 1.088875
2009-12-17 08:10:12 51°14.251 2°55.272 14.6394 0.024303 0.160421 1.088875
2009-12-17 08:10:17 51°14.259 2°55.259 14.4499 0.024406 0.161103 1.088875
2009-12-17 08:10:22 51°14.268 2°55.245 14.4442 0.023891 0.157605 1.088875
2009-12-17 08:10:27 51°14.277 2°55.23 14.509 0.0242 0.159682 1.088875
2009-12-17 08:10:32 51°14.285 2°55.215 14.5502 0.023376 0.154132 1.088875
2009-12-17 08:10:36 51°14.292 2°55.204 14.5243 0.023376 0.154132 1.088875
2009-12-17 08:10:42 51°14.302 2°55.185 14.5575 0.024097 0.158982 1.088875
2009-12-17 08:10:47 51°14.31 2°55.17 14.4821 0.023994 0.158297 1.088875
2009-12-17 08:10:52 51°14.318 2°55.154 14.4686 0.023685 0.156224 1.088875
2009-12-17 08:10:57 51°14.325 2°55.137 14.5029 0.023788 0.15692 1.088875
2009-12-17 08:11:02 51°14.333 2°55.12 14.4355 0.023994 0.158311 1.088875
2009-12-17 08:11:07 51°14.34 2°55.102 14.4466 0.023994 0.158311 1.088875
2009-12-17 08:11:12 51°14.348 2°55.084 14.5461 0.023376 0.154145 1.088875
2009-12-17 08:11:17 51°14.355 2°55.066 14.5404 0.024303 0.160386 1.088875
2009-12-17 08:11:22 51°14.363 2°55.047 14.5506 0.024303 0.16041 1.088875
2009-12-17 08:11:27 51°14.369 2°55.028 14.5895 0.024097 0.159049 1.088875
2009-12-17 08:11:32 51°14.375 2°55.007 14.5829 0.024097 0.159049 1.088875
2009-12-17 08:11:37 51°14.38 2°54.986 14.5755 0.023788 0.156954 1.088875
2009-12-17 08:11:42 51°14.384 2°54.964 14.5089 0.023788 0.156947 1.088875
2009-12-17 08:11:47 51°14.388 2°54.941 14.4784 0.023274 0.153474 1.088875
2009-12-17 08:11:52 51°14.39 2°54.918 14.4734 0.023274 0.153474 1.088875
2009-12-17 08:11:56 51°14.392 2°54.899 14.4761 0.022862 0.150703 1.088875
2009-12-17 08:12:02 51°14.393 2°54.87 14.5052 0.022656 0.149321 1.088875
2009-12-17 08:12:07 51°14.393 2°54.846 14.5446 0.022656 0.149321 1.088875
2009-12-17 08:12:12 51°14.392 2°54.822 14.5499 0.022965 0.151394 1.088875
2009-12-17 08:12:17 51°14.39 2°54.797 14.5331 0.023274 0.153474 1.088875
2009-12-17 08:12:22 51°14.387 2°54.773 14.5151 0.023274 0.153478 1.088875
2009-12-17 08:12:27 51°14.384 2°54.748 14.411 0.022759 0.150022 1.088875
2009-12-17 08:12:32 51°14.379 2°54.724 14.463 0.022759 0.150022 1.088875
2009-12-17 08:12:37 51°14.373 2°54.7 14.5075 0.022759 0.150022 1.088875
2009-12-17 08:12:42 51°14.367 2°54.676 14.4806 0.022759 0.150018 1.088875
2009-12-17 08:12:47 51°14.361 2°54.653 14.4557 0.02245 0.147947 1.088875
2009-12-17 08:12:52 51°14.354 2°54.629 14.388 0.022347 0.14726 1.088875
2009-12-17 08:12:57 51°14.347 2°54.605 14.2436 0.022553 0.14864 1.088875
2009-12-17 08:13:02 51°14.339 2°54.582 14.3912 0.022965 0.15141 1.088875
2009-12-17 08:13:07 51°14.333 2°54.558 14.3559 0.022965 0.15141 1.088875
2009-12-17 08:13:12 51°14.326 2°54.534 14.3548 0.022347 0.147273 1.088875
2009-12-17 08:13:17 51°14.319 2°54.51 14.4063 0.022553 0.14866 1.088875
2009-12-17 08:13:22 51°14.312 2°54.486 14.3941 0.02245 0.147969 1.088875
2009-12-17 08:13:27 51°14.304 2°54.462 14.3197 0.02245 0.147976 1.088875
2009-12-17 08:13:32 51°14.297 2°54.438 14.4165 0.022862 0.150746 1.088875
2009-12-17 08:13:36 51°14.291 2°54.419 14.3755 0.022862 0.150746 1.088875
2009-12-17 08:13:42 51°14.283 2°54.39 14.2832 0.023479 0.154926 1.088875
2009-12-17 08:13:47 51°14.275 2°54.366 14.3551 0.022553 0.148709 1.088875
2009-12-17 08:13:52 51°14.268 2°54.342 14.408 0.022656 0.149413 1.088875
2009-12-17 08:13:57 51°14.261 2°54.317 14.3369 0.023274 0.153576 1.088875
2009-12-17 08:14:02 51°14.255 2°54.293 14.3586 0.022759 0.150118 1.088875
2009-12-17 08:14:07 51°14.248 2°54.269 14.3733 0.022759 0.150118 1.088875
2009-12-17 08:14:12 51°14.24 2°54.245 14.3863 0.023582 0.155653 1.088875
2009-12-17 08:14:16 51°14.235 2°54.225 14.3182 0.022656 0.149423 1.088875
2009-12-17 08:14:22 51°14.226 2°54.196 14.3686 0.023068 0.152192 1.088875
2009-12-17 08:14:27 51°14.219 2°54.172 14.3752 0.022965 0.151514 1.088875
2009-12-17 08:14:32 51°14.212 2°54.148 14.2993 0.023171 0.152901 1.088875
2009-12-17 08:14:36 51°14.206 2°54.129 14.3616 0.023171 0.152901 1.088875
2009-12-17 08:14:42 51°14.197 2°54.099 14.36 0.023274 0.15361 1.088875
2009-12-17 08:14:47 51°14.19 2°54.075 14.3232 0.022759 0.150144 1.088875
2009-12-17 08:14:52 51°14.183 2°54.051 14.1887 0.023274 0.1536 1.088875
2009-12-17 08:14:57 51°14.175 2°54.027 14.3452 0.023274 0.15361 1.088875
2009-12-17 08:15:02 51°14.168 2°54.003 14.2199 0.023274 0.15361 1.088875
2009-12-17 08:15:07 51°14.16 2°53.979 14.3273 0.023376 0.154326 1.088875
2009-12-17 08:15:12 51°14.153 2°53.955 14.3407 0.023685 0.156473 1.088875
2009-12-17 08:15:17 51°14.145 2°53.931 14.3258 0.024406 0.161383 1.088875
2009-12-17 08:15:22 51°14.138 2°53.906 14.271 0.023582 0.155839 1.088875
2009-12-17 08:15:27 51°14.13 2°53.882 14.3826 0.023479 0.155115 1.088875
2009-12-17 08:15:32 51°14.124 2°53.857 14.1771 0.023068 0.152327 1.088875
2009-12-17 08:15:37 51°14.115 2°53.834 14.3254 0.023068 0.152327 1.088875
2009-12-17 08:15:42 51°14.109 2°53.809 14.3224 0.026155 0.173371 1.088875
2009-12-17 08:15:47 51°14.101 2°53.785 14.3208 0.025126 0.166411 1.088875
2009-12-17 08:15:52 51°14.094 2°53.76 14.3137 0.02492 0.164978 1.088875
2009-12-17 08:15:56 51°14.089 2°53.74 14.3298 0.024303 0.160771 1.088875
2009-12-17 08:16:02 51°14.08 2°53.711 14.2163 0.023376 0.154511 1.088875
2009-12-17 08:16:07 51°14.073 2°53.687 14.2799 0.023376 0.154511 1.088875
2009-12-17 08:16:12 51°14.065 2°53.662 14.3102 0.023068 0.152404 1.088875
2009-12-17 08:16:16 51°14.06 2°53.642 14.2696 0.022759 0.150316 1.123699
2009-12-17 08:16:22 51°14.051 2°53.613 14.3504 0.022656 0.149614 1.088875
2009-12-17 08:16:27 51°14.044 2°53.589 14.2753 0.023068 0.152401 1.088875
2009-12-17 08:16:32 51°14.036 2°53.565 14.3034 0.023068 0.152434 1.088875
2009-12-17 08:16:37 51°14.029 2°53.54 14.2628 0.023068 0.152434 1.088875
2009-12-17 08:16:42 51°14.022 2°53.515 14.3445 0.023274 0.153841 1.088875
2009-12-17 08:16:47 51°14.015 2°53.49 14.265 0.023274 0.153865 1.088875
2009-12-17 08:16:52 51°14.007 2°53.466 14.3462 0.023171 0.153199 1.088875
2009-12-17 08:16:57 51°14.001 2°53.441 14.2109 0.023788 0.157411 1.088875
2009-12-17 08:17:02 51°13.993 2°53.416 14.3253 0.023788 0.157411 1.088875
2009-12-17 08:17:07 51°13.987 2°53.391 14.3215 0.02492 0.165577 1.088875
2009-12-17 08:17:12 51°13.979 2°53.366 14.266 0.0242 0.160695 1.088875
2009-12-17 08:17:16 51°13.973 2°53.347 14.3465 0.025229 0.167689 1.088875
2009-12-17 08:17:22 51°13.965 2°53.316 14.209 0.024303 0.161277 1.088875
2009-12-17 08:17:27 51°13.958 2°53.292 14.3748 0.024097 0.159791 1.088875
2009-12-17 08:17:32 51°13.951 2°53.267 14.2593 0.027184 0.180615 1.088875
2009-12-17 08:17:37 51°13.944 2°53.242 14.3032 0.027184 0.180615 1.088875
2009-12-17 08:17:42 51°13.937 2°53.217 14.2388 0.025332 0.168063 1.088875
2009-12-17 08:17:47 51°13.929 2°53.192 14.3169 0.025332 0.168059 1.088875
2009-12-17 08:17:52 51°13.923 2°53.167 14.2896 0.02492 0.165303 1.088875
2009-12-17 08:17:57 51°13.915 2°53.142 14.2947 0.02492 0.165292 1.088875
2009-12-17 08:18:02 51°13.908 2°53.117 14.3001 0.024611 0.16319 1.088875
2009-12-17 08:18:07 51°13.901 2°53.092 14.2874 0.024611 0.16319 1.088875
2009-12-17 08:18:12 51°13.894 2°53.067 14.321 0.0242 0.16039 1.088875
2009-12-17 08:18:17 51°13.886 2°53.042 14.3027 0.0242 0.160405 1.088875
2009-12-17 08:18:22 51°13.879 2°53.017 14.282 0.024406 0.161808 1.088875
2009-12-17 08:18:27 51°13.872 2°52.992 14.2285 0.024611 0.16323 1.088875
2009-12-17 08:18:32 51°13.864 2°52.967 14.2972 0.024611 0.16323 1.088875
2009-12-17 08:18:37 51°13.857 2°52.941 14.3018 0.023994 0.159062 1.088875
2009-12-17 08:18:42 51°13.85 2°52.916 14.3306 0.023274 0.154186 1.088875
2009-12-17 08:18:47 51°13.843 2°52.891 14.3257 0.023068 0.15279 1.088875
2009-12-17 08:18:52 51°13.835 2°52.866 14.3199 0.023068 0.152793 1.088875
2009-12-17 08:18:56 51°13.829 2°52.846 14.309 0.023068 0.152793 1.088875
2009-12-17 08:19:02 51°13.82 2°52.816 14.3164 0.022656 0.150055 1.123699
2009-12-17 08:19:07 51°13.814 2°52.791 14.241 0.022656 0.150055 1.123699
2009-12-17 08:19:12 51°13.806 2°52.766 14.3278 0.022965 0.152196 1.088875
2009-12-17 08:19:17 51°13.799 2°52.741 14.3151 0.023376 0.154964 1.088875
2009-12-17 08:19:22 51°13.792 2°52.716 14.2473 0.022862 0.151484 1.088875
2009-12-17 08:19:27 51°13.784 2°52.691 14.304 0.022862 0.151468 1.088875
2009-12-17 08:19:32 51°13.777 2°52.666 14.3006 0.023274 0.154227 1.088875
2009-12-17 08:19:36 51°13.771 2°52.646 14.2968 0.023274 0.154227 1.088875
2009-12-17 08:19:42 51°13.762 2°52.616 14.3012 0.022759 0.150733 1.088875
2009-12-17 08:19:47 51°13.755 2°52.59 14.2226 0.022656 0.150058 1.088875
2009-12-17 08:19:52 51°13.747 2°52.566 14.2909 0.023376 0.154971 1.088875
2009-12-17 08:19:57 51°13.74 2°52.54 14.2426 0.023171 0.153604 1.088875
2009-12-17 08:20:02 51°13.732 2°52.515 14.284 0.024508 0.162719 1.088875
2009-12-17 08:20:07 51°13.725 2°52.49 14.2634 0.024508 0.162719 1.088875
2009-12-17 08:20:12 51°13.718 2°52.465 14.2432 0.023891 0.15855 1.088875
2009-12-17 08:20:17 51°13.71 2°52.44 14.2989 0.023788 0.15785 1.088875
2009-12-17 08:20:22 51°13.703 2°52.415 14.2407 0.024097 0.159941 1.088875
2009-12-17 08:20:27 51°13.696 2°52.39 14.2776 0.024611 0.163428 1.088875
2009-12-17 08:20:32 51°13.689 2°52.365 14.2988 0.024611 0.163428 1.088875
2009-12-17 08:20:37 51°13.681 2°52.34 14.3063 0.024097 0.159926 1.088875
2009-12-17 08:20:42 51°13.674 2°52.314 14.3012 0.024508 0.162716 1.088875
2009-12-17 08:20:47 51°13.667 2°52.289 14.2759 0.023377 0.155043 1.088875
2009-12-17 08:20:52 51°13.659 2°52.264 14.2965 0.025435 0.169026 1.088875
2009-12-17 08:20:57 51°13.652 2°52.239 14.3299 0.023685 0.15722 1.088875
2009-12-17 08:21:02 51°13.644 2°52.214 14.2822 0.028213 0.188049 1.088875
2009-12-17 08:21:07 51°13.637 2°52.189 14.3105 0.028213 0.188049 1.088875
2009-12-17 08:21:12 51°13.629 2°52.164 14.2943 0.025023 0.166388 1.088875
2009-12-17 08:21:16 51°13.623 2°52.144 14.3108 0.025023 0.166332 1.088875
2009-12-17 08:21:22 51°13.613 2°52.115 14.2767 0.025229 0.167738 1.088875
2009-12-17 08:21:27 51°13.605 2°52.09 14.3203 0.024303 0.161443 1.088875
2009-12-17 08:21:32 51°13.596 2°52.066 14.279 0.023891 0.158625 1.088875
2009-12-17 08:21:37 51°13.588 2°52.042 14.2997 0.023891 0.158625 1.088875
2009-12-17 08:21:42 51°13.58 2°52.018 14.2983 0.023788 0.157934 1.088875
2009-12-17 08:21:47 51°13.57 2°51.994 14.3394 0.0242 0.160724 1.088875
2009-12-17 08:21:52 51°13.563 2°51.969 14.2219 0.023685 0.157213 1.088875
2009-12-17 08:21:56 51°13.555 2°51.95 14.2901 0.025435 0.169109 1.088875
2009-12-17 08:22:02 51°13.545 2°51.921 14.271 0.025435 0.169109 1.088875
2009-12-17 08:22:07 51°13.536 2°51.898 14.3213 0.024817 0.164935 1.088875
2009-12-17 08:22:12 51°13.528 2°51.873 14.2891 0.024303 0.161443 1.123699
2009-12-17 08:22:16 51°13.52 2°51.854 14.2912 0.0242 0.160749 1.088875
2009-12-17 08:22:22 51°13.51 2°51.825 14.2327 0.024097 0.160048 1.088875
2009-12-17 08:22:27 51°13.5 2°51.802 14.3058 0.025743 0.171366 1.088875
2009-12-17 08:22:32 51°13.493 2°51.777 14.2519 0.024303 0.161512 1.088875
2009-12-17 08:22:37 51°13.483 2°51.754 14.3272 0.024303 0.161512 1.088875
2009-12-17 08:22:42 51°13.475 2°51.729 14.2529 0.025538 0.170119 1.088875
2009-12-17 08:22:47 51°13.465 2°51.706 14.2909 0.026155 0.174389 1.088875
2009-12-17 08:22:52 51°13.458 2°51.681 14.3112 0.027287 0.182089 1.088875
2009-12-17 08:22:57 51°13.449 2°51.657 14.2202 0.026052 0.173633 1.088875
2009-12-17 08:23:02 51°13.44 2°51.633 14.3297 0.028316 0.189113 1.123699
2009-12-17 08:23:07 51°13.432 2°51.609 14.2765 0.028316 0.189113 1.123699
2009-12-17 08:23:12 51°13.422 2°51.586 14.2319 0.025435 0.169365 1.088875
2009-12-17 08:23:16 51°13.416 2°51.566 14.3394 0.027802 0.185463 1.123699
2009-12-17 08:23:22 51°13.406 2°51.538 14.188 0.025949 0.172752 1.088875
2009-12-17 08:23:27 51°13.396 2°51.515 14.3672 0.028625 0.191157 1.123699
2009-12-17 08:23:32 51°13.388 2°51.491 14.2752 0.024508 0.163051 1.088875
2009-12-17 08:23:36 51°13.38 2°51.473 14.2854 0.024508 0.163051 1.088875
2009-12-17 08:23:42 51°13.37 2°51.444 14.3022 0.025126 0.167256 1.088875
2009-12-17 08:23:47 51°13.361 2°51.421 14.2711 0.024714 0.16448 1.088875
2009-12-17 08:23:52 51°13.352 2°51.398 14.3003 0.025229 0.168013 1.088875
2009-12-17 08:23:57 51°13.344 2°51.374 14.2949 0.023685 0.157505 1.123699
2009-12-17 08:24:02 51°13.335 2°51.351 14.229 0.023685 0.157505 1.123699
2009-12-17 08:24:07 51°13.326 2°51.327 14.3273 0.028831 0.192689 1.088875
2009-12-17 08:24:12 51°13.319 2°51.304 14.2211 0.02564 0.171005 1.088875
2009-12-17 08:24:17 51°13.309 2°51.281 14.3175 0.028419 0.189961 1.088875
2009-12-17 08:24:22 51°13.301 2°51.257 14.2557 0.026464 0.176608 1.088875
2009-12-17 08:24:27 51°13.292 2°51.235 14.3025 0.02492 0.165999 1.088875
2009-12-17 08:24:32 51°13.284 2°51.21 14.2863 0.024714 0.164513 1.088875
2009-12-17 08:24:37 51°13.275 2°51.188 14.3035 0.024714 0.164513 1.088875
2009-12-17 08:24:42 51°13.267 2°51.164 14.2389 0.023274 0.154716 1.088875
2009-12-17 08:24:47 51°13.258 2°51.141 14.3254 0.026875 0.179261 1.088875
2009-12-17 08:24:52 51°13.25 2°51.116 14.2654 0.024406 0.162458 1.088875
2009-12-17 08:24:57 51°13.241 2°51.093 14.2614 0.025743 0.17156 1.088875
2009-12-17 08:25:02 51°13.233 2°51.069 14.317 0.023377 0.155487 1.088875
2009-12-17 08:25:07 51°13.225 2°51.046 14.1956 0.023377 0.155487 1.088875
2009-12-17 08:25:12 51°13.215 2°51.022 14.3336 0.029654 0.198447 1.088875
2009-12-17 08:25:17 51°13.208 2°50.998 14.2673 0.024406 0.162644 1.088875
2009-12-17 08:25:22 51°13.198 2°50.976 14.308 0.028213 0.188637 1.088875
2009-12-17 08:25:27 51°13.191 2°50.951 14.2907 0.024611 0.163983 1.088875
2009-12-17 08:25:32 51°13.182 2°50.929 14.2796 0.024611 0.163983 1.088875
2009-12-17 08:25:36 51°13.176 2°50.909 14.2638 0.029036 0.194228 1.088875
2009-12-17 08:25:42 51°13.165 2°50.881 14.2514 0.02492 0.166081 1.088875
2009-12-17 08:25:47 51°13.157 2°50.858 14.2907 0.026258 0.175214 1.088875
2009-12-17 08:25:52 51°13.149 2°50.834 14.2393 0.02492 0.166051 1.088875
2009-12-17 08:25:57 51°13.14 2°50.811 14.2989 0.02564 0.170955 1.088875
2009-12-17 08:26:02 51°13.132 2°50.787 14.2451 0.02564 0.170955 1.088875
2009-12-17 08:26:07 51°13.123 2°50.764 14.3075 0.025435 0.169552 1.088875
2009-12-17 08:26:12 51°13.116 2°50.739 14.2311 0.025846 0.172491 1.088875
2009-12-17 08:26:17 51°13.106 2°50.717 14.2977 0.026567 0.177427 1.088875
2009-12-17 08:26:22 51°13.099 2°50.692 14.2576 0.024817 0.165451 1.088875
2009-12-17 08:26:27 51°13.09 2°50.669 14.279 0.024817 0.16541 1.088875
2009-12-17 08:26:32 51°13.081 2°50.645 14.2745 0.0242 0.161197 1.088875
2009-12-17 08:26:37 51°13.073 2°50.622 14.286 0.0242 0.161197 1.088875
2009-12-17 08:26:42 51°13.064 2°50.598 14.2872 0.0242 0.161197 1.088875
2009-12-17 08:26:47 51°13.056 2°50.574 14.2458 0.023994 0.159801 1.088875
2009-12-17 08:26:52 51°13.047 2°50.551 14.3049 0.023891 0.159083 1.088875
2009-12-17 08:26:57 51°13.04 2°50.527 14.2731 0.023788 0.158348 1.088875
2009-12-17 08:27:02 51°13.03 2°50.504 14.2961 0.02492 0.166111 1.088875
2009-12-17 08:27:07 51°13.023 2°50.48 14.3032 0.02492 0.166111 1.088875
2009-12-17 08:27:12 51°13.014 2°50.457 14.2898 0.023788 0.158388 1.088875
2009-12-17 08:27:17 51°13.005 2°50.433 14.312 0.023377 0.15556 1.088875
2009-12-17 08:27:22 51°12.997 2°50.409 14.259 0.022965 0.152746 1.088875
2009-12-17 08:27:27 51°12.988 2°50.386 14.3116 0.023582 0.156943 1.088875
2009-12-17 08:27:32 51°12.981 2°50.362 14.2491 0.023582 0.156943 1.088875
2009-12-17 08:27:37 51°12.971 2°50.34 14.2966 0.024509 0.163238 1.054051
2009-12-17 08:27:42 51°12.963 2°50.315 14.2877 0.02667 0.17803 1.054051
2009-12-17 08:27:47 51°12.955 2°50.292 14.2632 0.02492 0.166115 1.054051
2009-12-17 08:27:52 51°12.946 2°50.269 14.2533 0.024097 0.160472 1.054051
2009-12-17 08:27:57 51°12.937 2°50.246 14.3011 0.023479 0.156252 1.088875
2009-12-17 08:28:02 51°12.929 2°50.222 14.254 0.025332 0.168874 1.088875
2009-12-17 08:28:07 51°12.92 2°50.199 14.3094 0.025332 0.168874 1.088875
2009-12-17 08:28:12 51°12.912 2°50.175 14.2906 0.024303 0.1619 1.088875
2009-12-17 08:28:17 51°12.903 2°50.152 14.302 0.023582 0.156989 1.054051
2009-12-17 08:28:22 51°12.895 2°50.128 14.2565 0.023274 0.154896 1.054051
2009-12-17 08:28:27 51°12.886 2°50.105 14.2832 0.023891 0.159087 1.054051
2009-12-17 08:28:32 51°12.878 2°50.081 14.2834 0.023685 0.157685 1.054051
2009-12-17 08:28:37 51°12.869 2°50.058 14.3002 0.023685 0.157685 1.054051
2009-12-17 08:28:42 51°12.862 2°50.034 14.2889 0.023377 0.155588 1.088875
2009-12-17 08:28:47 51°12.853 2°50.012 14.3012 0.023274 0.154886 1.054051
2009-12-17 08:28:52 51°12.844 2°49.988 14.3051 0.022965 0.152797 1.088875
2009-12-17 08:28:57 51°12.836 2°49.964 14.2606 0.023994 0.15979 1.088875
2009-12-17 08:29:02 51°12.827 2°49.941 14.3029 0.024509 0.163323 1.088875
2009-12-17 08:29:07 51°12.819 2°49.917 14.2984 0.024509 0.163323 1.088875
2009-12-17 08:29:12 51°12.811 2°49.894 14.3089 0.023582 0.157021 1.088875
2009-12-17 08:29:16 51°12.804 2°49.875 14.3021 0.023274 0.154924 1.088875
2009-12-17 08:29:22 51°12.794 2°49.847 14.3012 0.023068 0.153527 1.088875
2009-12-17 08:29:27 51°12.785 2°49.824 14.3001 0.022862 0.15213 1.088875
2009-12-17 08:29:32 51°12.777 2°49.8 14.3114 0.022862 0.15213 1.088875
2009-12-17 08:29:37 51°12.769 2°49.777 14.3029 0.023274 0.154934 1.054051
2009-12-17 08:29:42 51°12.76 2°49.753 14.3052 0.023685 0.157741 1.088875
2009-12-17 08:29:47 51°12.752 2°49.73 14.2957 0.022553 0.150046 1.088875
2009-12-17 08:29:52 51°12.744 2°49.706 14.2779 0.023377 0.155644 1.088875
2009-12-17 08:29:57 51°12.735 2°49.683 14.3015 0.023171 0.154236 1.088875
2009-12-17 08:30:02 51°12.727 2°49.659 14.3059 0.022759 0.151435 1.088875
2009-12-17 08:30:07 51°12.719 2°49.635 14.3131 0.022759 0.151435 1.088875
2009-12-17 08:30:12 51°12.71 2°49.612 14.3041 0.022656 0.15072 1.088875
2009-12-17 08:30:17 51°12.702 2°49.589 14.3072 0.022553 0.150019 1.054051
2009-12-17 08:30:22 51°12.693 2°49.565 14.2876 0.022965 0.15289 1.088875
2009-12-17 08:30:27 51°12.685 2°49.541 14.2927 0.022656 0.150838 1.088875
2009-12-17 08:30:32 51°12.676 2°49.518 14.2937 0.022347 0.148747 1.054051
2009-12-17 08:30:37 51°12.667 2°49.494 14.3041 0.022347 0.148747 1.054051
2009-12-17 08:30:42 51°12.659 2°49.47 14.3159 0.022759 0.151537 1.088875
2009-12-17 08:30:47 51°12.65 2°49.447 14.319 0.022759 0.151489 1.088875
2009-12-17 08:30:52 51°12.642 2°49.423 14.3115 0.022347 0.148667 1.054051
2009-12-17 08:30:57 51°12.633 2°49.4 14.3074 0.022347 0.148661 1.088875
2009-12-17 08:31:02 51°12.625 2°49.376 14.2943 0.022347 0.148661 1.088875
2009-12-17 08:31:07 51°12.616 2°49.352 14.3117 0.022656 0.150747 1.054051
2009-12-17 08:31:12 51°12.608 2°49.328 14.278 0.022142 0.147253 1.088875
2009-12-17 08:31:17 51°12.599 2°49.305 14.3183 0.022656 0.150741 1.088875
2009-12-17 08:31:22 51°12.591 2°49.281 14.3015 0.022759 0.151445 1.054051
2009-12-17 08:31:27 51°12.582 2°49.257 14.3025 0.023479 0.156346 1.054051
2009-12-17 08:31:32 51°12.574 2°49.233 14.3125 0.023479 0.156346 1.054051
2009-12-17 08:31:37 51°12.566 2°49.21 14.2922 0.022656 0.150754 1.054051
2009-12-17 08:31:42 51°12.556 2°49.187 14.3243 0.024509 0.163341 1.054051
2009-12-17 08:31:47 51°12.549 2°49.162 14.3064 0.023171 0.154256 1.088875
2009-12-17 08:31:52 51°12.54 2°49.139 14.2978 0.02492 0.166152 1.088875
2009-12-17 08:31:57 51°12.532 2°49.115 14.3252 0.024714 0.164772 1.088875
2009-12-17 08:32:02 51°12.523 2°49.091 14.2811 0.023582 0.157053 1.054051
2009-12-17 08:32:07 51°12.515 2°49.068 14.3055 0.023582 0.157053 1.054051
2009-12-17 08:32:12 51°12.506 2°49.044 14.2818 0.023377 0.155651 1.088875
2009-12-17 08:32:16 51°12.499 2°49.026 14.3229 0.023685 0.157752 1.054051
2009-12-17 08:32:22 51°12.489 2°48.996 14.2781 0.0242 0.161262 1.088875
2009-12-17 08:32:27 51°12.48 2°48.974 14.3289 0.025332 0.169 1.054051
2009-12-17 08:32:32 51°12.472 2°48.949 14.3139 0.023068 0.153568 1.088875
2009-12-17 08:32:37 51°12.463 2°48.926 14.3212 0.023068 0.153568 1.088875
2009-12-17 08:32:42 51°12.455 2°48.902 14.3021 0.022862 0.152154 1.054051
2009-12-17 08:32:47 51°12.446 2°48.879 14.3253 0.023068 0.153551 1.054051
2009-12-17 08:32:52 51°12.438 2°48.855 14.2974 0.023479 0.156378 1.054051
2009-12-17 08:32:57 51°12.429 2°48.832 14.326 0.023582 0.157088 1.088875
2009-12-17 08:33:02 51°12.421 2°48.808 14.3262 0.023582 0.157088 1.088875
2009-12-17 08:33:07 51°12.413 2°48.785 14.3217 0.023274 0.155 1.054051
2009-12-17 08:33:12 51°12.404 2°48.761 14.3272 0.023377 0.155727 1.054051
2009-12-17 08:33:17 51°12.396 2°48.738 14.3036 0.023274 0.155045 1.054051
2009-12-17 08:33:22 51°12.387 2°48.714 14.3309 0.023274 0.155059 1.088875
2009-12-17 08:33:27 51°12.379 2°48.691 14.3148 0.023068 0.153661 1.088875
2009-12-17 08:33:32 51°12.37 2°48.667 14.327 0.022965 0.152968 1.054051
2009-12-17 08:33:37 51°12.362 2°48.643 14.309 0.022965 0.152968 1.054051
2009-12-17 08:33:42 51°12.353 2°48.621 14.3323 0.022965 0.152955 1.054051
2009-12-17 08:33:47 51°12.345 2°48.597 14.3314 0.022862 0.152235 1.054051
2009-12-17 08:33:52 51°12.336 2°48.574 14.3416 0.022965 0.152948 1.054051
2009-12-17 08:33:57 51°12.328 2°48.55 14.3051 0.022759 0.151537 1.054051
2009-12-17 08:34:02 51°12.319 2°48.527 14.3421 0.026361 0.176193 1.088875
2009-12-17 08:34:07 51°12.312 2°48.503 14.3526 0.026361 0.176193 1.088875
2009-12-17 08:34:12 51°12.302 2°48.481 14.3087 0.025332 0.169168 1.054051
2009-12-17 08:34:16 51°12.296 2°48.462 14.3551 0.028213 0.1889 1.054051
2009-12-17 08:34:22 51°12.286 2°48.434 14.315 0.02564 0.171245 1.054051
2009-12-17 08:34:27 51°12.277 2°48.411 14.3444 0.026258 0.175465 1.054051
2009-12-17 08:34:32 51°12.269 2°48.388 14.308 0.024611 0.164194 1.054051
2009-12-17 08:34:37 51°12.26 2°48.365 14.3474 0.024611 0.164194 1.054051
2009-12-17 08:34:42 51°12.252 2°48.341 14.329 0.023788 0.158569 1.088875
2009-12-17 08:34:47 51°12.243 2°48.318 14.3342 0.023068 0.15365 1.088875
2009-12-17 08:34:52 51°12.235 2°48.295 14.3143 0.02492 0.166246 1.054051
2009-12-17 08:34:57 51°12.227 2°48.272 14.338 0.02492 0.166253 1.054051
2009-12-17 08:35:02 51°12.218 2°48.248 14.3159 0.02492 0.166253 1.054051
2009-12-17 08:35:07 51°12.21 2°48.225 14.3359 0.023891 0.159237 1.088875
2009-12-17 08:35:12 51°12.201 2°48.201 14.3263 0.023788 0.158544 1.054051
2009-12-17 08:35:17 51°12.193 2°48.178 14.3452 0.023788 0.158548 1.088875
2009-12-17 08:35:22 51°12.185 2°48.155 14.3177 0.022862 0.152256 1.054051
2009-12-17 08:35:27 51°12.176 2°48.131 14.3176 0.02245 0.149435 1.054051
2009-12-17 08:35:32 51°12.167 2°48.108 14.3113 0.022965 0.15289 1.054051
2009-12-17 08:35:37 51°12.159 2°48.085 14.3146 0.022965 0.15289 1.054051
2009-12-17 08:35:42 51°12.15 2°48.062 14.3418 0.022553 0.150083 1.054051
2009-12-17 08:35:47 51°12.142 2°48.038 14.3336 0.022656 0.150788 1.054051
2009-12-17 08:35:52 51°12.133 2°48.015 14.347 0.023377 0.15572 1.054051
2009-12-17 08:35:57 51°12.125 2°47.991 14.3176 0.022656 0.150858 1.054051
2009-12-17 08:36:02 51°12.116 2°47.969 14.3338 0.022656 0.150852 1.054051
2009-12-17 08:36:07 51°12.108 2°47.945 14.3314 0.022656 0.150852 1.054051
2009-12-17 08:36:12 51°12.099 2°47.922 14.3472 0.022656 0.150855 1.054051
2009-12-17 08:36:17 51°12.091 2°47.898 14.332 0.022656 0.150865 1.088875
2009-12-17 08:36:22 51°12.082 2°47.875 14.3522 0.022862 0.152297 1.088875
2009-12-17 08:36:27 51°12.074 2°47.851 14.3305 0.022656 0.150909 1.054051
2009-12-17 08:36:32 51°12.065 2°47.829 14.3436 0.022656 0.150909 1.054051
2009-12-17 08:36:37 51°12.057 2°47.804 14.3366 0.022965 0.153013 1.088875
2009-12-17 08:36:42 51°12.048 2°47.781 14.3234 0.022759 0.151604 1.088875
2009-12-17 08:36:47 51°12.04 2°47.758 14.3573 0.023171 0.154408 1.054051
2009-12-17 08:36:52 51°12.032 2°47.734 14.3044 0.023274 0.155115 1.088875
2009-12-17 08:36:57 51°12.022 2°47.712 14.3701 0.027493 0.183985 1.054051
2009-12-17 08:37:02 51°12.015 2°47.687 14.3131 0.024406 0.162886 1.054051
2009-12-17 08:37:07 51°12.005 2°47.665 14.3636 0.024406 0.162886 1.054051
2009-12-17 08:37:12 51°11.998 2°47.641 14.32 0.02492 0.166396 1.088875
2009-12-17 08:37:17 51°11.988 2°47.618 14.3425 0.025126 0.167767 1.054051
2009-12-17 08:37:22 51°11.98 2°47.594 14.3304 0.024714 0.164966 1.088875
2009-12-17 08:37:27 51°11.971 2°47.572 14.3395 0.028934 0.193833 1.054051
2009-12-17 08:37:32 51°11.963 2°47.548 14.3668 0.025435 0.169871 1.088875
2009-12-17 08:37:37 51°11.954 2°47.525 14.2997 0.025435 0.169871 1.088875
2009-12-17 08:37:42 51°11.945 2°47.502 14.3739 0.029654 0.198802 1.054051
2009-12-17 08:37:47 51°11.938 2°47.478 14.3294 0.024817 0.165671 1.088875
2009-12-17 08:37:52 51°11.928 2°47.455 14.3519 0.023891 0.159316 1.088875
2009-12-17 08:37:57 51°11.92 2°47.432 14.3486 0.023274 0.155091 1.088875
2009-12-17 08:38:02 51°11.911 2°47.409 14.3461 0.023171 0.154377 1.088875
2009-12-17 08:38:07 51°11.903 2°47.385 14.3475 0.023171 0.154377 1.088875
2009-12-17 08:38:12 51°11.894 2°47.363 14.3436 0.022965 0.152982 1.088875
2009-12-17 08:38:17 51°11.885 2°47.34 14.3452 0.0242 0.1614 1.088875
2009-12-17 08:38:22 51°11.877 2°47.316 14.3635 0.0242 0.161429 1.088875
2009-12-17 08:38:27 51°11.868 2°47.293 14.2997 0.028419 0.190308 1.054051
2009-12-17 08:38:32 51°11.859 2°47.27 14.3715 0.028419 0.190308 1.054051
2009-12-17 08:38:37 51°11.852 2°47.246 14.332 0.028007 0.187603 1.088875
2009-12-17 08:38:42 51°11.842 2°47.225 14.3516 0.027904 0.186837 1.054051
2009-12-17 08:38:47 51°11.835 2°47.201 14.3506 0.02986 0.200324 1.088875
2009-12-17 08:38:52 51°11.826 2°47.178 14.3419 0.025949 0.17348 1.054051
2009-12-17 08:38:57 51°11.817 2°47.155 14.3593 0.025641 0.17135 1.088875
2009-12-17 08:39:02 51°11.809 2°47.132 14.359 0.025126 0.167812 1.054051
2009-12-17 08:39:07 51°11.801 2°47.109 14.3628 0.025126 0.167812 1.054051
2009-12-17 08:39:12 51°11.792 2°47.085 14.3303 0.024611 0.16426 1.054051
2009-12-17 08:39:16 51°11.785 2°47.067 14.3521 0.025023 0.167072 1.054051
2009-12-17 08:39:22 51°11.775 2°47.038 14.361 0.023479 0.156529 1.054051
2009-12-17 08:39:27 51°11.766 2°47.016 14.3771 0.024303 0.162152 1.054051
2009-12-17 08:39:32 51°11.759 2°46.991 14.326 0.025949 0.173413 1.054051
2009-12-17 08:39:37 51°11.749 2°46.969 14.3688 0.025949 0.173413 1.054051
2009-12-17 08:39:42 51°11.742 2°46.945 14.3237 0.025332 0.169275 1.054051
2009-12-17 08:39:47 51°11.733 2°46.922 14.3387 0.025229 0.168561 1.019227
2009-12-17 08:39:52 51°11.728 2°46.897 14.346 0.026772 0.179115 1.019227
2009-12-17 08:39:57 51°11.723 2°46.872 14.355 0.02739 0.183371 1.019227
2009-12-17 08:40:02 51°11.719 2°46.847 14.3575 0.02739 0.183371 1.019227
2009-12-17 08:40:07 51°11.715 2°46.821 14.3661 0.024406 0.162909 1.019227
2009-12-17 08:40:12 51°11.712 2°46.796 14.3716 0.024714 0.165003 1.019227
2009-12-17 08:40:17 51°11.71 2°46.77 14.3637 0.023479 0.156578 1.019227
2009-12-17 08:40:22 51°11.707 2°46.744 14.3502 0.023891 0.159352 1.019227
2009-12-17 08:40:27 51°11.705 2°46.718 14.3526 0.023479 0.15656 1.019227
2009-12-17 08:40:32 51°11.703 2°46.691 14.3742 0.023582 0.157264 1.019227
2009-12-17 08:40:37 51°11.702 2°46.665 14.3567 0.023582 0.157264 1.019227
2009-12-17 08:40:42 51°11.699 2°46.639 14.3546 0.023891 0.159438 1.019227
2009-12-17 08:40:47 51°11.698 2°46.613 14.3493 0.023582 0.157345 1.054051
2009-12-17 08:40:52 51°11.696 2°46.587 14.3579 0.023891 0.159452 1.019227
2009-12-17 08:40:57 51°11.694 2°46.56 14.3596 0.023582 0.157342 1.054051
2009-12-17 08:41:02 51°11.693 2°46.534 14.373 0.022862 0.15246 1.019227
2009-12-17 08:41:07 51°11.692 2°46.508 14.3622 0.022862 0.15246 1.019227
2009-12-17 08:41:12 51°11.69 2°46.481 14.3727 0.023479 0.156669 1.019227
2009-12-17 08:41:17 51°11.69 2°46.454 14.3633 0.022965 0.153205 1.054051
2009-12-17 08:41:22 51°11.688 2°46.427 14.3651 0.023479 0.156722 1.019227
2009-12-17 08:41:27 51°11.687 2°46.4 14.3658 0.023685 0.158142 1.019227
2009-12-17 08:41:32 51°11.685 2°46.374 14.3776 0.023274 0.155338 1.054051
2009-12-17 08:41:37 51°11.685 2°46.347 14.3743 0.023274 0.155338 1.054051
2009-12-17 08:41:42 51°11.683 2°46.32 14.3757 0.023788 0.158833 1.054051
2009-12-17 08:41:47 51°11.682 2°46.294 14.3705 0.023685 0.158132 1.019227
2009-12-17 08:41:52 51°11.68 2°46.267 14.3846 0.023685 0.158107 1.054051
2009-12-17 08:41:57 51°11.679 2°46.24 14.3786 0.023171 0.154602 1.019227
2009-12-17 08:42:02 51°11.678 2°46.213 14.3696 0.023171 0.154602 1.019227
2009-12-17 08:42:07 51°11.678 2°46.187 14.3831 0.023479 0.156715 1.054051
2009-12-17 08:42:12 51°11.676 2°46.16 14.3716 0.023171 0.154606 1.054051
2009-12-17 08:42:16 51°11.675 2°46.139 14.3846 0.022965 0.153181 1.054051
2009-12-17 08:42:22 51°11.674 2°46.107 14.3617 0.023994 0.16015 1.019227
2009-12-17 08:42:27 51°11.673 2°46.08 14.3771 0.023685 0.158071 1.019227
2009-12-17 08:42:32 51°11.673 2°46.054 14.3725 0.023274 0.155282 1.019227
2009-12-17 08:42:37 51°11.671 2°46.027 14.3825 0.023274 0.155282 1.019227
2009-12-17 08:42:42 51°11.671 2°46 14.3731 0.022965 0.153188 1.019227
2009-12-17 08:42:47 51°11.67 2°45.974 14.3794 0.023068 0.153898 1.019227
2009-12-17 08:42:52 51°11.67 2°45.947 14.3929 0.023171 0.154609 1.054051
2009-12-17 08:42:57 51°11.669 2°45.92 14.3781 0.023171 0.154606 1.019227
2009-12-17 08:43:02 51°11.669 2°45.893 14.3992 0.022965 0.153191 1.019227
2009-12-17 08:43:07 51°11.668 2°45.866 14.3952 0.022965 0.153191 1.019227
2009-12-17 08:43:12 51°11.668 2°45.839 14.3883 0.023377 0.156004 1.019227
2009-12-17 08:43:17 51°11.668 2°45.812 14.395 0.022553 0.150398 1.054051
2009-12-17 08:43:22 51°11.666 2°45.785 14.394 0.023994 0.160222 1.019227
2009-12-17 08:43:27 51°11.667 2°45.758 14.3884 0.023685 0.158142 1.019227
2009-12-17 08:43:32 51°11.665 2°45.731 14.3974 0.023068 0.153947 1.054051
2009-12-17 08:43:36 51°11.665 2°45.709 14.4035 0.023068 0.153947 1.054051
2009-12-17 08:43:42 51°11.664 2°45.677 14.4064 0.023685 0.158171 1.054051
2009-12-17 08:43:47 51°11.663 2°45.65 14.4083 0.023582 0.157455 1.054051
2009-12-17 08:43:52 51°11.663 2°45.623 14.4023 0.022965 0.153226 1.054051
2009-12-17 08:43:57 51°11.662 2°45.596 14.394 0.023582 0.157416 1.019227
2009-12-17 08:44:02 51°11.661 2°45.569 14.4039 0.023171 0.154641 1.054051
2009-12-17 08:44:07 51°11.661 2°45.542 14.3988 0.023171 0.154641 1.054051
2009-12-17 08:44:12 51°11.66 2°45.515 14.3883 0.023788 0.158883 1.054051
2009-12-17 08:44:17 51°11.66 2°45.488 14.3899 0.023068 0.153968 1.054051
2009-12-17 08:44:22 51°11.659 2°45.461 14.4027 0.022862 0.152601 1.054051
2009-12-17 08:44:27 51°11.659 2°45.434 14.4066 0.023377 0.156095 1.054051
2009-12-17 08:44:32 51°11.658 2°45.407 14.4118 0.023274 0.15538 1.019227
2009-12-17 08:44:37 51°11.658 2°45.38 14.4081 0.023274 0.15538 1.019227
2009-12-17 08:44:42 51°11.657 2°45.353 14.405 0.023685 0.158196 1.019227
2009-12-17 08:44:47 51°11.657 2°45.326 14.3964 0.023274 0.155394 1.019227
2009-12-17 08:44:52 51°11.656 2°45.299 14.4012 0.023068 0.153985 1.054051
2009-12-17 08:44:57 51°11.656 2°45.272 14.398 0.022965 0.153263 1.054051
2009-12-17 08:45:02 51°11.655 2°45.245 14.4191 0.022553 0.150459 1.054051
2009-12-17 08:45:07 51°11.655 2°45.218 14.396 0.022553 0.150459 1.054051
2009-12-17 08:45:12 51°11.653 2°45.191 14.4017 0.023068 0.153954 1.019227
2009-12-17 08:45:17 51°11.652 2°45.164 14.4107 0.023788 0.158883 1.054051
2009-12-17 08:45:22 51°11.652 2°45.137 14.3947 0.023479 0.156782 1.054051
2009-12-17 08:45:27 51°11.65 2°45.11 14.4153 0.025126 0.168048 1.054051
2009-12-17 08:45:32 51°11.65 2°45.084 14.4193 0.025126 0.168048 1.054051
2009-12-17 08:45:37 51°11.649 2°45.057 14.4168 0.023377 0.156105 1.054051
2009-12-17 08:45:42 51°11.648 2°45.03 14.397 0.024097 0.161018 1.054051
2009-12-17 08:45:47 51°11.647 2°45.004 14.3997 0.023685 0.158206 1.054051
2009-12-17 08:45:52 51°11.646 2°44.978 14.4192 0.025126 0.168048 1.019227
2009-12-17 08:45:57 51°11.646 2°44.952 14.4134 0.023377 0.156123 1.054051
2009-12-17 08:46:02 51°11.644 2°44.925 14.4175 0.023068 0.153999 1.019227
2009-12-17 08:46:07 51°11.644 2°44.899 14.4192 0.023068 0.153999 1.019227
2009-12-17 08:46:12 51°11.642 2°44.872 14.4173 0.023377 0.156105 1.019227
2009-12-17 08:46:16 51°11.641 2°44.851 14.4209 0.023479 0.1568 1.054051
2009-12-17 08:46:22 51°11.64 2°44.819 14.424 0.022862 0.152587 1.054051
2009-12-17 08:46:27 51°11.639 2°44.793 14.4182 0.023479 0.15681 1.054051
2009-12-17 08:46:32 51°11.639 2°44.766 14.4097 0.023171 0.154713 1.054051
2009-12-17 08:46:37 51°11.637 2°44.74 14.4197 0.023171 0.154713 1.054051
2009-12-17 08:46:42 51°11.637 2°44.713 14.4068 0.023479 0.156842 1.054051
2009-12-17 08:46:47 51°11.636 2°44.687 14.4133 0.023479 0.156824 1.019227
2009-12-17 08:46:52 51°11.635 2°44.661 14.4236 0.023479 0.156824 1.019227
2009-12-17 08:46:57 51°11.635 2°44.634 14.4235 0.022965 0.153315 1.054051
2009-12-17 08:47:02 51°11.634 2°44.608 14.4316 0.023171 0.1547 1.054051
2009-12-17 08:47:07 51°11.633 2°44.582 14.4288 0.023171 0.1547 1.054051
2009-12-17 08:47:12 51°11.632 2°44.556 14.4108 0.022553 0.150493 1.054051
2009-12-17 08:47:17 51°11.631 2°44.529 14.4322 0.023685 0.158217 1.054051
2009-12-17 08:47:22 51°11.631 2°44.503 14.418 0.023171 0.154734 1.054051
2009-12-17 08:47:27 51°11.63 2°44.477 14.4162 0.024097 0.161073 1.019227
2009-12-17 08:47:32 51°11.629 2°44.451 14.4232 0.024097 0.161073 1.019227
2009-12-17 08:47:37 51°11.629 2°44.425 14.4344 0.023994 0.160359 1.019227
2009-12-17 08:47:42 51°11.628 2°44.399 14.4306 0.023685 0.158274 1.054051
2009-12-17 08:47:47 51°11.628 2°44.373 14.4243 0.022862 0.152673 1.054051
2009-12-17 08:47:52 51°11.627 2°44.347 14.4183 0.023479 0.156895 1.054051
2009-12-17 08:47:57 51°11.627 2°44.321 14.4296 0.023274 0.155502 1.054051
2009-12-17 08:48:02 51°11.626 2°44.295 14.4366 0.022862 0.152683 1.019227
2009-12-17 08:48:07 51°11.626 2°44.269 14.4279 0.022862 0.152683 1.019227
2009-12-17 08:48:12 51°11.626 2°44.243 14.4362 0.022656 0.151254 1.054051
2009-12-17 08:48:16 51°11.625 2°44.222 14.4337 0.023068 0.15404 1.019227
2009-12-17 08:48:22 51°11.625 2°44.192 14.4299 0.022965 0.153343 1.054051
2009-12-17 08:48:27 51°11.624 2°44.166 14.4293 0.023068 0.154054 1.019227
2009-12-17 08:48:32 51°11.623 2°44.14 14.4341 0.023068 0.154085 1.019227
2009-12-17 08:48:37 51°11.622 2°44.114 14.4339 0.023068 0.154085 1.019227
2009-12-17 08:48:42 51°11.622 2°44.088 14.4363 0.023068 0.154109 1.054051
2009-12-17 08:48:47 51°11.621 2°44.063 14.4431 0.022965 0.153394 1.054051
2009-12-17 08:48:52 51°11.62 2°44.037 14.4397 0.023582 0.157579 1.054051
2009-12-17 08:48:57 51°11.62 2°44.012 14.4332 0.023274 0.155464 1.054051
2009-12-17 08:49:02 51°11.62 2°43.987 14.4261 0.024611 0.164624 1.019227
2009-12-17 08:49:07 51°11.619 2°43.961 14.4427 0.024611 0.164624 1.019227
2009-12-17 08:49:12 51°11.618 2°43.936 14.4406 0.023479 0.156892 1.054051
2009-12-17 08:49:17 51°11.617 2°43.911 14.4448 0.023274 0.155488 1.054051
2009-12-17 08:49:22 51°11.617 2°43.886 14.454 0.023479 0.156927 1.019227
2009-12-17 08:49:27 51°11.617 2°43.86 14.452 0.023377 0.156242 1.019227
2009-12-17 08:49:32 51°11.615 2°43.834 14.4572 0.02667 0.178781 1.054051
2009-12-17 08:49:37 51°11.616 2°43.809 14.4495 0.02667 0.178781 1.054051
2009-12-17 08:49:42 51°11.615 2°43.785 14.4198 0.023479 0.156941 1.054051
2009-12-17 08:49:47 51°11.613 2°43.759 14.4615 0.029345 0.197163 1.019227
2009-12-17 08:49:52 51°11.614 2°43.733 14.4529 0.024714 0.16538 1.054051
2009-12-17 08:49:57 51°11.612 2°43.708 14.4255 0.028831 0.193636 1.019227
2009-12-17 08:50:02 51°11.612 2°43.683 14.4599 0.026567 0.178078 1.054051
2009-12-17 08:50:07 51°11.612 2°43.658 14.4395 0.026567 0.178078 1.054051
2009-12-17 08:50:12 51°11.61 2°43.633 14.4561 0.026258 0.175936 1.019227
2009-12-17 08:50:17 51°11.61 2°43.608 14.4541 0.026875 0.180173 1.019227
2009-12-17 08:50:22 51°11.61 2°43.582 14.4436 0.024611 0.164654 1.054051
2009-12-17 08:50:27 51°11.609 2°43.557 14.448 0.025538 0.170976 1.054051
2009-12-17 08:50:32 51°11.608 2°43.531 14.4509 0.023479 0.156895 1.019227
2009-12-17 08:50:37 51°11.608 2°43.506 14.4514 0.023479 0.156895 1.019227
2009-12-17 08:50:42 51°11.607 2°43.48 14.4632 0.023377 0.156162 1.019227
2009-12-17 08:50:47 51°11.606 2°43.455 14.462 0.023068 0.154057 1.054051
2009-12-17 08:50:52 51°11.605 2°43.43 14.4419 0.023685 0.158274 1.019227
2009-12-17 08:50:57 51°11.604 2°43.405 14.4494 0.025126 0.168162 1.019227
2009-12-17 08:51:02 51°11.604 2°43.38 14.4612 0.025126 0.168162 1.019227
2009-12-17 08:51:07 51°11.603 2°43.354 14.4577 0.023479 0.15692 1.019227
2009-12-17 08:51:12 51°11.602 2°43.329 14.4647 0.023377 0.156211 1.019227
2009-12-17 08:51:17 51°11.602 2°43.304 14.4619 0.023994 0.160428 1.019227
2009-12-17 08:51:22 51°11.601 2°43.278 14.4642 0.023582 0.157636 1.019227
2009-12-17 08:51:27 51°11.6 2°43.253 14.4652 0.022965 0.153449 1.054051
2009-12-17 08:51:32 51°11.599 2°43.227 14.4553 0.023068 0.154161 1.054051
2009-12-17 08:51:37 51°11.598 2°43.202 14.4644 0.023068 0.154161 1.054051
2009-12-17 08:51:42 51°11.598 2°43.176 14.4627 0.023582 0.157665 1.054051
2009-12-17 08:51:47 51°11.597 2°43.151 14.4705 0.023891 0.159751 1.019227
2009-12-17 08:51:52 51°11.597 2°43.125 14.4702 0.023377 0.156246 1.019227
2009-12-17 08:51:57 51°11.596 2°43.1 14.4717 0.022759 0.152026 1.019227
2009-12-17 08:52:02 51°11.596 2°43.075 14.4669 0.022656 0.151315 1.054051
2009-12-17 08:52:07 51°11.595 2°43.049 14.4741 0.022656 0.151315 1.054051
2009-12-17 08:52:12 51°11.594 2°43.023 14.4755 0.023171 0.154825 1.054051
2009-12-17 08:52:17 51°11.594 2°42.998 14.4775 0.023377 0.156228 1.019227
2009-12-17 08:52:22 51°11.593 2°42.972 14.4735 0.022965 0.153429 1.019227
2009-12-17 08:52:27 51°11.592 2°42.947 14.4784 0.022759 0.15203 1.054051
2009-12-17 08:52:32 51°11.591 2°42.921 14.4785 0.022759 0.152057 1.054051
2009-12-17 08:52:36 51°11.591 2°42.901 14.4676 0.022759 0.152057 1.054051
2009-12-17 08:52:42 51°11.59 2°42.87 14.4815 0.023479 0.156991 1.054051
2009-12-17 08:52:47 51°11.589 2°42.845 14.477 0.023171 0.154863 1.054051
2009-12-17 08:52:52 51°11.589 2°42.82 14.4712 0.023377 0.156278 1.019227
2009-12-17 08:52:57 51°11.588 2°42.794 14.4832 0.023068 0.154161 1.019227
2009-12-17 08:53:02 51°11.587 2°42.769 14.4837 0.023068 0.154161 1.019227
2009-12-17 08:53:07 51°11.586 2°42.744 14.4714 0.023274 0.155579 1.019227
2009-12-17 08:53:12 51°11.585 2°42.718 14.4759 0.022759 0.152071 1.019227
2009-12-17 08:53:17 51°11.585 2°42.693 14.4828 0.022862 0.152765 1.054051
2009-12-17 08:53:22 51°11.583 2°42.668 14.483 0.023685 0.158374 1.019227
2009-12-17 08:53:27 51°11.583 2°42.643 14.4907 0.023068 0.154182 1.019227
2009-12-17 08:53:32 51°11.582 2°42.617 14.4879 0.023891 0.159826 1.019227
2009-12-17 08:53:37 51°11.581 2°42.592 14.4919 0.023891 0.159826 1.019227
2009-12-17 08:53:42 51°11.58 2°42.566 14.4854 0.023582 0.157679 1.019227
2009-12-17 08:53:47 51°11.58 2°42.541 14.4921 0.0242 0.161933 1.054051
2009-12-17 08:53:52 51°11.58 2°42.516 14.4913 0.023068 0.15421 1.054051
2009-12-17 08:53:57 51°11.579 2°42.49 14.4953 0.023582 0.157739 1.054051
2009-12-17 08:54:02 51°11.578 2°42.465 14.4959 0.023377 0.156331 1.019227
2009-12-17 08:54:07 51°11.578 2°42.439 14.4925 0.023377 0.156331 1.019227
2009-12-17 08:54:12 51°11.577 2°42.414 14.4882 0.023171 0.154905 1.019227
2009-12-17 08:54:17 51°11.577 2°42.389 14.4868 0.023377 0.156285 1.019227
2009-12-17 08:54:22 51°11.576 2°42.363 14.4963 0.023274 0.155597 1.019227
2009-12-17 08:54:27 51°11.574 2°42.338 14.4954 0.022862 0.15281 1.019227
2009-12-17 08:54:32 51°11.574 2°42.312 14.4894 0.022862 0.15281 1.019227
2009-12-17 08:54:37 51°11.572 2°42.287 14.4995 0.023788 0.159134 1.019227
2009-12-17 08:54:42 51°11.571 2°42.262 14.4896 0.023274 0.155639 1.019227
2009-12-17 08:54:47 51°11.57 2°42.237 14.497 0.023479 0.157037 1.019227
2009-12-17 08:54:52 51°11.569 2°42.211 14.5001 0.023068 0.154227 1.019227
2009-12-17 08:54:56 51°11.568 2°42.191 14.5001 0.024406 0.163366 1.019227
2009-12-17 08:55:02 51°11.567 2°42.161 14.4998 0.023274 0.155628 1.019227
2009-12-17 08:55:07 51°11.565 2°42.135 14.5038 0.023274 0.155628 1.019227
2009-12-17 08:55:12 51°11.564 2°42.11 14.4996 0.024817 0.166201 1.019227
2009-12-17 08:55:17 51°11.563 2°42.085 14.4938 0.023274 0.15567 1.193347
2009-12-17 08:55:22 51°11.561 2°42.059 14.5047 0.023685 0.158474 1.228171
2009-12-17 08:55:27 51°11.559 2°42.034 14.4948 0.023788 0.159206 1.193347
2009-12-17 08:55:32 51°11.558 2°42.009 14.5026 0.023377 0.156373 1.228171
2009-12-17 08:55:37 51°11.556 2°41.984 14.5051 0.023377 0.156373 1.228171
2009-12-17 08:55:42 51°11.554 2°41.959 14.5108 0.023171 0.154964 1.193347
2009-12-17 08:55:47 51°11.553 2°41.933 14.5085 0.022965 0.15355 1.193347
2009-12-17 08:55:52 51°11.551 2°41.908 14.5086 0.023068 0.154265 1.193347
2009-12-17 08:55:57 51°11.549 2°41.883 14.508 0.023274 0.155674 1.193347
2009-12-17 08:56:02 51°11.547 2°41.858 14.5112 0.022965 0.153567 1.193347
2009-12-17 08:56:07 51°11.545 2°41.832 14.5091 0.022965 0.153567 1.193347
2009-12-17 08:56:12 51°11.543 2°41.807 14.5068 0.022656 0.151471 1.193347
2009-12-17 08:56:17 51°11.541 2°41.781 14.5189 0.023068 0.15429 1.193347
2009-12-17 08:56:22 51°11.54 2°41.755 14.5172 0.022965 0.153598 1.193347
2009-12-17 08:56:27 51°11.539 2°41.73 14.5098 0.022862 0.152892 1.193347
2009-12-17 08:56:32 51°11.537 2°41.704 14.5006 0.022862 0.152892 1.193347
2009-12-17 08:56:37 51°11.536 2°41.679 14.5028 0.022759 0.15218 1.158523
2009-12-17 08:56:42 51°11.534 2°41.655 14.5104 0.023068 0.154259 1.158523
2009-12-17 08:56:47 51°11.533 2°41.634 14.5128 0.02245 0.150048 1.158523
2009-12-17 08:56:52 51°11.532 2°41.614 14.5161 0.023274 0.15566 1.123699
2009-12-17 08:56:57 51°11.532 2°41.596 14.5146 0.023274 0.155681 1.158523
2009-12-17 08:57:02 51°11.532 2°41.579 14.5215 0.023582 0.15781 1.158523
2009-12-17 08:57:07 51°11.534 2°41.565 14.5236 0.023582 0.15781 1.158523
2009-12-17 08:57:12 51°11.536 2°41.551 14.5268 0.023994 0.160631 1.158523
2009-12-17 08:57:17 51°11.538 2°41.539 14.5262 0.023479 0.157118 1.123699
2009-12-17 08:57:22 51°11.541 2°41.527 14.5153 0.023171 0.154999 1.158523
2009-12-17 08:57:27 51°11.544 2°41.516 14.5171 0.023582 0.157789 1.158523
2009-12-17 08:57:32 51°11.548 2°41.508 14.5165 0.023171 0.154975 1.158523
2009-12-17 08:57:37 51°11.553 2°41.5 14.5221 0.023171 0.154975 1.158523
2009-12-17 08:57:42 51°11.557 2°41.493 14.5201 0.023274 0.155677 1.158523
2009-12-17 08:57:47 51°11.562 2°41.488 14.5276 0.023479 0.157083 1.123699
2009-12-17 08:57:52 51°11.567 2°41.484 14.5351 0.023479 0.157083 1.158523
2009-12-17 08:57:57 51°11.571 2°41.48 14.5432 0.025126 0.168361 1.123699
2009-12-17 08:58:02 51°11.577 2°41.478 14.5422 0.025126 0.168361 1.123699
2009-12-17 08:58:07 51°11.581 2°41.477 14.539 0.027493 0.184617 1.158523
2009-12-17 08:58:12 51°11.586 2°41.475 14.5447 0.026875 0.180379 1.158523
2009-12-17 08:58:17 51°11.591 2°41.472 14.5414 0.026773 0.179676 1.123699
2009-12-17 08:58:22 51°11.596 2°41.469 14.5458 0.024714 0.165527 1.123699
2009-12-17 08:58:27 51°11.601 2°41.464 14.5493 0.023068 0.154231 1.158523
2009-12-17 08:58:32 51°11.605 2°41.459 14.5413 0.023068 0.154231 1.158523
2009-12-17 08:58:37 51°11.609 2°41.453 14.5407 0.022759 0.152095 1.158523
2009-12-17 08:58:42 51°11.612 2°41.446 14.5424 0.022862 0.152799 1.123699
2009-12-17 08:58:47 51°11.615 2°41.438 14.5429 0.023685 0.158446 1.123699
2009-12-17 08:58:52 51°11.617 2°41.429 14.5427 0.023685 0.158467 1.158523
2009-12-17 08:58:57 51°11.618 2°41.418 14.5372 0.023479 0.157068 1.123699
2009-12-17 08:59:02 51°11.619 2°41.409 14.5381 0.022553 0.150732 1.158523
2009-12-17 08:59:07 51°11.619 2°41.399 14.5452 0.022553 0.150732 1.158523
2009-12-17 08:59:12 51°11.618 2°41.39 14.5443 0.022965 0.153536 1.158523
2009-12-17 08:59:17 51°11.617 2°41.381 14.5446 0.022553 0.150729 1.123699
2009-12-17 08:59:22 51°11.616 2°41.373 14.5441 0.022553 0.150729 1.158523
2009-12-17 08:59:27 51°11.614 2°41.364 14.548 0.02245 0.150065 1.158523
2009-12-17 08:59:32 51°11.612 2°41.356 14.5524 0.022656 0.151475 1.158523
2009-12-17 08:59:37 51°11.609 2°41.348 14.5499 0.022656 0.151475 1.158523
2009-12-17 08:59:42 51°11.607 2°41.341 14.5457 0.022553 0.150756 1.158523
2009-12-17 08:59:47 51°11.604 2°41.334 14.5493 0.022656 0.151458 1.158523
2009-12-17 08:59:52 51°11.601 2°41.327 14.5524 0.022245 0.148662 1.158523
2009-12-17 08:59:57 51°11.597 2°41.321 14.5537 0.022245 0.148666 1.158523
2009-12-17 09:00:02 51°11.593 2°41.315 14.549 0.022245 0.148666 1.158523
2009-12-17 09:00:07 51°11.589 2°41.31 14.5518 0.022656 0.151461 1.158523
2009-12-17 09:00:12 51°11.585 2°41.305 14.5528 0.022656 0.151468 1.158523
2009-12-17 09:00:17 51°11.58 2°41.301 14.5569 0.022245 0.148669 1.158523
2009-12-17 09:00:22 51°11.575 2°41.297 14.5551 0.022245 0.148659 1.158523
2009-12-17 09:00:27 51°11.57 2°41.294 14.559 0.022245 0.148696 1.158523
2009-12-17 09:00:32 51°11.565 2°41.292 14.5594 0.022245 0.148716 1.158523
2009-12-17 09:00:37 51°11.56 2°41.291 14.5565 0.022245 0.148716 1.158523
2009-12-17 09:00:42 51°11.555 2°41.29 14.56 0.022245 0.148739 1.158523
2009-12-17 09:00:47 51°11.549 2°41.29 14.5543 0.022245 0.148742 1.158523
2009-12-17 09:00:52 51°11.543 2°41.291 14.5491 0.022347 0.149394 1.158523
2009-12-17 09:00:57 51°11.538 2°41.292 14.5608 0.022245 0.148686 1.158523
2009-12-17 09:01:02 51°11.531 2°41.294 14.5566 0.022039 0.14729 1.158523
2009-12-17 09:01:07 51°11.525 2°41.296 14.5441 0.022039 0.14729 1.158523
2009-12-17 09:01:12 51°11.517 2°41.299 14.562 0.022039 0.14729 1.158523
2009-12-17 09:01:17 51°11.51 2°41.301 14.5475 0.022142 0.147961 1.158523
2009-12-17 09:01:22 51°11.502 2°41.304 14.5204 0.022039 0.147264 1.158523
2009-12-17 09:01:27 51°11.494 2°41.307 14.7218 0.021936 0.14656 1.158523
2009-12-17 09:01:32 51°11.486 2°41.309 14.885 0.021936 0.146556 1.158523
2009-12-17 09:01:36 51°11.479 2°41.311 14.854 0.021936 0.146556 1.158523
2009-12-17 09:01:42 51°11.47 2°41.314 14.7785 0.023582 0.157821 1.158523
2009-12-17 09:01:47 51°11.461 2°41.316 14.7042 0.025949 0.174062 1.158523
2009-12-17 09:01:52 51°11.453 2°41.318 14.6717 0.029037 0.195364 1.158523
2009-12-17 09:01:57 51°11.445 2°41.319 14.6184 0.029037 0.195373 1.158523
2009-12-17 09:02:02 51°11.438 2°41.32 14.5851 0.029037 0.195373 1.158523
2009-12-17 09:02:07 51°11.43 2°41.32 14.6111 0.028625 0.192537 1.158523
2009-12-17 09:02:12 51°11.423 2°41.321 14.5686 0.026567 0.178363 1.158523
2009-12-17 09:02:17 51°11.416 2°41.32 14.5944 0.028419 0.191104 1.158523
2009-12-17 09:02:22 51°11.409 2°41.321 14.5797 0.026978 0.181178 1.158523
2009-12-17 09:02:27 51°11.402 2°41.32 14.5997 0.025641 0.171982 1.158523
2009-12-17 09:02:32 51°11.396 2°41.32 14.5905 0.026875 0.180457 1.158523
2009-12-17 09:02:37 51°11.389 2°41.319 14.6133 0.026875 0.180457 1.158523
2009-12-17 09:02:42 51°11.382 2°41.318 14.6197 0.025126 0.168426 1.158523
2009-12-17 09:02:47 51°11.376 2°41.316 14.6015 0.023891 0.159935 1.158523
2009-12-17 09:02:52 51°11.369 2°41.314 14.6291 0.024097 0.161317 1.158523
2009-12-17 09:02:57 51°11.363 2°41.313 14.6132 0.024406 0.163417 1.158523
2009-12-17 09:03:02 51°11.357 2°41.31 14.6183 0.023994 0.160588 1.158523
2009-12-17 09:03:07 51°11.35 2°41.308 14.644 0.023994 0.160588 1.158523
2009-12-17 09:03:12 51°11.344 2°41.305 14.6235 0.023274 0.155667 1.158523
2009-12-17 09:03:17 51°11.338 2°41.302 14.6299 0.023685 0.158485 1.158523
2009-12-17 09:03:22 51°11.332 2°41.298 14.661 0.023891 0.159891 1.158523
2009-12-17 09:03:27 51°11.327 2°41.295 14.6718 0.023891 0.159891 1.158523
2009-12-17 09:03:32 51°11.321 2°41.291 14.6622 0.023891 0.159891 1.158523
2009-12-17 09:03:37 51°11.315 2°41.287 14.6536 0.024303 0.16271 1.158523
2009-12-17 09:03:42 51°11.309 2°41.283 14.6601 0.024611 0.164818 1.158523
2009-12-17 09:03:47 51°11.304 2°41.278 14.6728 0.023788 0.159185 1.158523
2009-12-17 09:03:52 51°11.298 2°41.274 14.681 0.023171 0.154964 1.193347
2009-12-17 09:03:57 51°11.293 2°41.269 14.6576 0.025846 0.173284 1.158523
2009-12-17 09:04:02 51°11.288 2°41.263 14.6729 0.024406 0.163414 1.193347
2009-12-17 09:04:07 51°11.283 2°41.258 14.6712 0.024406 0.163414 1.193347
2009-12-17 09:04:12 51°11.278 2°41.252 14.6588 0.023994 0.160606 1.158523
2009-12-17 09:04:17 51°11.273 2°41.246 14.6777 0.024509 0.164118 1.158523
2009-12-17 09:04:22 51°11.269 2°41.24 14.6774 0.02492 0.166928 1.158523
2009-12-17 09:04:27 51°11.264 2°41.234 14.6746 0.024611 0.164826 1.193347
2009-12-17 09:04:32 51°11.26 2°41.227 14.6909 0.0242 0.162013 1.158523
2009-12-17 09:04:37 51°11.255 2°41.221 14.6878 0.0242 0.162013 1.158523
2009-12-17 09:04:42 51°11.251 2°41.213 14.6859 0.023891 0.15991 1.193347
2009-12-17 09:04:47 51°11.247 2°41.207 14.6826 0.024303 0.162728 1.193347
2009-12-17 09:04:52 51°11.243 2°41.2 14.6957 0.024303 0.162732 1.193347
2009-12-17 09:04:57 51°11.239 2°41.192 14.6865 0.025949 0.174006 1.158523
2009-12-17 09:05:02 51°11.235 2°41.185 14.7118 0.025949 0.17401 1.158523
2009-12-17 09:05:07 51°11.231 2°41.179 14.6987 0.025949 0.17401 1.158523
2009-12-17 09:05:12 51°11.227 2°41.172 14.6942 0.025023 0.16766 1.158523
2009-12-17 09:05:17 51°11.222 2°41.166 14.6951 0.024817 0.166246 1.158523
2009-12-17 09:05:22 51°11.218 2°41.159 14.6986 0.024611 0.164841 1.158523
2009-12-17 09:05:27 51°11.214 2°41.152 14.7029 0.025023 0.16766 1.158523
2009-12-17 09:05:32 51°11.21 2°41.146 14.7071 0.025023 0.16766 1.158523
2009-12-17 09:05:37 51°11.205 2°41.14 14.6971 0.0242 0.162024 1.193347
2009-12-17 09:05:42 51°11.201 2°41.133 14.6976 0.024611 0.164845 1.193347
2009-12-17 09:05:47 51°11.197 2°41.126 14.7181 0.024611 0.164841 1.158523
2009-12-17 09:05:52 51°11.193 2°41.12 14.7014 0.024406 0.163429 1.193347
2009-12-17 09:05:57 51°11.189 2°41.113 14.7164 0.023891 0.159902 1.193347
2009-12-17 09:06:02 51°11.185 2°41.106 14.7196 0.023274 0.155681 1.193347
2009-12-17 09:06:07 51°11.181 2°41.1 14.7315 0.023274 0.155681 1.193347
2009-12-17 09:06:12 51°11.176 2°41.094 14.7382 0.023582 0.157782 1.193347
2009-12-17 09:06:16 51°11.173 2°41.088 14.7218 0.023274 0.155674 1.193347
2009-12-17 09:06:22 51°11.168 2°41.081 14.7221 0.023377 0.15638 1.193347
2009-12-17 09:06:27 51°11.163 2°41.075 14.7244 0.023685 0.158489 1.193347
2009-12-17 09:06:32 51°11.159 2°41.068 14.7242 0.023891 0.159891 1.193347
2009-12-17 09:06:37 51°11.155 2°41.062 14.7264 0.023891 0.159891 1.193347
2009-12-17 09:06:42 51°11.151 2°41.056 14.7322 0.023582 0.157778 1.193347
2009-12-17 09:06:47 51°11.148 2°41.05 14.7362 0.023891 0.159888 1.193347
2009-12-17 09:06:52 51°11.143 2°41.044 14.7234 0.024303 0.162706 1.193347
2009-12-17 09:06:57 51°11.139 2°41.038 14.7083 0.02492 0.166947 1.193347
2009-12-17 09:07:02 51°11.136 2°41.031 14.7 0.026567 0.178257 1.193347
2009-12-17 09:07:07 51°11.132 2°41.025 14.6999 0.026567 0.178257 1.193347
2009-12-17 09:07:12 51°11.128 2°41.019 14.7102 0.02667 0.178989 1.193347
2009-12-17 09:07:17 51°11.124 2°41.013 14.6936 0.02667 0.178997 1.193347
2009-12-17 09:07:22 51°11.121 2°41.007 14.6887 0.027802 0.186806 1.193347
2009-12-17 09:07:27 51°11.117 2°41.001 14.6906 0.027287 0.183264 1.193347
2009-12-17 09:07:32 51°11.113 2°40.995 14.6934 0.02667 0.179014 1.193347
2009-12-17 09:07:37 51°11.109 2°40.989 14.6988 0.02667 0.179014 1.193347
2009-12-17 09:07:42 51°11.106 2°40.983 14.6888 0.026464 0.177591 1.193347
2009-12-17 09:07:47 51°11.102 2°40.977 14.6958 0.025538 0.171229 1.193347
2009-12-17 09:07:52 51°11.098 2°40.971 14.6997 0.02492 0.166989 1.193347
2009-12-17 09:07:57 51°11.095 2°40.965 14.7003 0.023891 0.159891 1.193347
2009-12-17 09:08:02 51°11.091 2°40.958 14.7016 0.024097 0.161291 1.193347
2009-12-17 09:08:07 51°11.088 2°40.953 14.7148 0.024097 0.161291 1.193347
2009-12-17 09:08:12 51°11.084 2°40.947 14.7198 0.024097 0.161302 1.193347
2009-12-17 09:08:17 51°11.08 2°40.941 14.7068 0.023891 0.159891 1.193347
2009-12-17 09:08:22 51°11.077 2°40.935 14.7126 0.023788 0.159185 1.193347
2009-12-17 09:08:27 51°11.073 2°40.929 14.728 0.023994 0.160591 1.193347
2009-12-17 09:08:32 51°11.069 2°40.924 14.7361 0.023891 0.159891 1.193347
2009-12-17 09:08:37 51°11.066 2°40.918 14.7155 0.023891 0.159891 1.193347
2009-12-17 09:08:42 51°11.062 2°40.912 14.7308 0.024097 0.161295 1.193347
2009-12-17 09:08:47 51°11.059 2°40.906 14.7352 0.0242 0.161995 1.193347
2009-12-17 09:08:52 51°11.055 2°40.9 14.74 0.023891 0.159881 1.193347
2009-12-17 09:08:57 51°11.051 2°40.895 14.7362 0.023788 0.159174 1.193347
2009-12-17 09:09:02 51°11.048 2°40.889 14.7211 0.023788 0.159174 1.193347
2009-12-17 09:09:07 51°11.044 2°40.883 14.7296 0.023685 0.158474 1.193347
2009-12-17 09:09:12 51°11.041 2°40.877 14.7335 0.023274 0.155663 1.193347
2009-12-17 09:09:17 51°11.037 2°40.871 14.7398 0.023891 0.159881 1.193347
2009-12-17 09:09:22 51°11.034 2°40.865 14.7342 0.023582 0.157775 1.193347
2009-12-17 09:09:27 51°11.03 2°40.859 14.7357 0.023274 0.155667 1.193347
2009-12-17 09:09:32 51°11.027 2°40.852 14.7388 0.023274 0.15567 1.193347
2009-12-17 09:09:37 51°11.024 2°40.846 14.748 0.023274 0.15567 1.193347
2009-12-17 09:09:42 51°11.02 2°40.84 14.7487 0.022759 0.152159 1.193347
2009-12-17 09:09:47 51°11.017 2°40.834 14.7387 0.022965 0.15356 1.193347
2009-12-17 09:09:52 51°11.014 2°40.827 14.7427 0.023377 0.156376 1.193347
2009-12-17 09:09:57 51°11.01 2°40.821 14.7341 0.023377 0.156376 1.193347
2009-12-17 09:10:02 51°11.007 2°40.814 14.7428 0.023479 0.157083 1.193347
2009-12-17 09:10:07 51°11.004 2°40.808 14.7458 0.023479 0.157083 1.193347
2009-12-17 09:10:12 51°11 2°40.801 14.7466 0.023274 0.155677 1.193347
2009-12-17 09:10:17 51°10.997 2°40.795 14.746 0.022965 0.153567 1.193347
2009-12-17 09:10:22 51°10.994 2°40.788 14.7463 0.023068 0.154272 1.193347
2009-12-17 09:10:27 51°10.99 2°40.782 14.7454 0.023274 0.155677 1.193347
2009-12-17 09:10:32 51°10.987 2°40.776 14.7566 0.023171 0.154978 1.193347
2009-12-17 09:10:37 51°10.984 2°40.77 14.7488 0.023171 0.154978 1.193347
2009-12-17 09:10:42 51°10.981 2°40.763 14.7529 0.023582 0.1578 1.193347
2009-12-17 09:10:47 51°10.977 2°40.757 14.75 0.023171 0.154992 1.193347
2009-12-17 09:10:52 51°10.974 2°40.75 14.7594 0.023377 0.156405 1.193347
2009-12-17 09:10:57 51°10.971 2°40.744 14.7689 0.023891 0.159938 1.193347
2009-12-17 09:11:02 51°10.968 2°40.737 14.7549 0.023891 0.159938 1.193347
2009-12-17 09:11:07 51°10.964 2°40.731 14.7611 0.0242 0.162065 1.193347
2009-12-17 09:11:12 51°10.961 2°40.725 14.7652 0.024303 0.162776 1.193347
2009-12-17 09:11:17 51°10.957 2°40.719 14.7654 0.024097 0.161357 1.193347
2009-12-17 09:11:22 51°10.954 2°40.712 14.7649 0.024097 0.161346 1.193347
2009-12-17 09:11:27 51°10.951 2°40.706 14.7659 0.023994 0.160642 1.193347
2009-12-17 09:11:32 51°10.948 2°40.699 14.7681 0.023891 0.159942 1.193347
2009-12-17 09:11:37 51°10.944 2°40.693 14.7844 0.023891 0.159942 1.193347
2009-12-17 09:11:42 51°10.941 2°40.687 14.7816 0.023994 0.160646 1.193347
2009-12-17 09:11:47 51°10.938 2°40.68 14.7731 0.023994 0.160646 1.193347
2009-12-17 09:11:52 51°10.935 2°40.674 14.7738 0.024303 0.162754 1.193347
2009-12-17 09:11:57 51°10.931 2°40.668 14.7778 0.023891 0.159938 1.193347
2009-12-17 09:12:02 51°10.928 2°40.662 14.7952 0.024097 0.161346 1.193347
2009-12-17 09:12:07 51°10.925 2°40.656 14.7795 0.024097 0.161346 1.193347
2009-12-17 09:12:12 51°10.922 2°40.649 14.7848 0.024303 0.162758 1.193347
2009-12-17 09:12:17 51°10.918 2°40.643 14.7871 0.023479 0.157122 1.193347
2009-12-17 09:12:22 51°10.915 2°40.637 14.7922 0.023891 0.159931 1.193347
2009-12-17 09:12:27 51°10.912 2°40.631 14.7909 0.0242 0.162046 1.193347
2009-12-17 09:12:32 51°10.908 2°40.625 14.7869 0.0242 0.162046 1.193347
2009-12-17 09:12:37 51°10.905 2°40.619 14.7874 0.0242 0.162046 1.193347
2009-12-17 09:12:42 51°10.902 2°40.612 14.7913 0.023377 0.156419 1.193347
2009-12-17 09:12:47 51°10.899 2°40.606 14.8033 0.023274 0.155709 1.193347
2009-12-17 09:12:52 51°10.895 2°40.6 14.7955 0.023582 0.157814 1.193347
2009-12-17 09:12:57 51°10.892 2°40.594 14.8044 0.023377 0.156419 1.193347
2009-12-17 09:13:02 51°10.889 2°40.588 14.8058 0.023685 0.158524 1.193347
2009-12-17 09:13:07 51°10.886 2°40.581 14.8015 0.023685 0.158524 1.193347
2009-12-17 09:13:12 51°10.882 2°40.575 14.7989 0.023479 0.157122 1.193347
2009-12-17 09:13:17 51°10.879 2°40.569 14.8053 0.023479 0.157122 1.193347
2009-12-17 09:13:22 51°10.876 2°40.563 14.8032 0.023891 0.159938 1.193347
2009-12-17 09:13:27 51°10.872 2°40.556 14.8159 0.023377 0.156422 1.193347
2009-12-17 09:13:32 51°10.869 2°40.55 14.8087 0.023788 0.159246 1.193347
2009-12-17 09:13:37 51°10.866 2°40.543 14.806 0.023788 0.159246 1.193347
2009-12-17 09:13:42 51°10.863 2°40.537 14.8099 0.023891 0.159949 1.193347
2009-12-17 09:13:47 51°10.86 2°40.53 14.8163 0.023891 0.159942 1.193347
2009-12-17 09:13:52 51°10.856 2°40.524 14.8154 0.023788 0.159235 1.193347
2009-12-17 09:13:57 51°10.853 2°40.518 14.8193 0.023479 0.157129 1.193347
2009-12-17 09:14:02 51°10.85 2°40.512 14.8165 0.023171 0.155017 1.193347
2009-12-17 09:14:07 51°10.847 2°40.505 14.8238 0.023171 0.155017 1.193347
2009-12-17 09:14:12 51°10.844 2°40.499 14.8273 0.023274 0.155719 1.193347
2009-12-17 09:14:17 51°10.841 2°40.493 14.8223 0.023994 0.160642 1.193347
2009-12-17 09:14:22 51°10.837 2°40.486 14.8186 0.023891 0.159942 1.193347
2009-12-17 09:14:27 51°10.834 2°40.48 14.8239 0.023582 0.157832 1.193347
2009-12-17 09:14:32 51°10.83 2°40.474 14.8282 0.023582 0.157832 1.193347
2009-12-17 09:14:37 51°10.827 2°40.468 14.8238 0.0242 0.162061 1.193347
2009-12-17 09:14:42 51°10.824 2°40.461 14.8283 0.023891 0.159949 1.193347
2009-12-17 09:14:47 51°10.821 2°40.454 14.8347 0.023994 0.160653 1.193347
2009-12-17 09:14:52 51°10.817 2°40.448 14.8308 0.023582 0.157843 1.193347
2009-12-17 09:14:57 51°10.814 2°40.442 14.8335 0.023274 0.15573 1.193347
2009-12-17 09:15:02 51°10.81 2°40.435 14.8432 0.023788 0.159253 1.193347
2009-12-17 09:15:07 51°10.807 2°40.429 14.837 0.023788 0.159253 1.193347
2009-12-17 09:15:12 51°10.803 2°40.422 14.8389 0.023891 0.159964 1.228171
2009-12-17 09:15:17 51°10.8 2°40.415 14.8428 0.024303 0.16278 1.193347
2009-12-17 09:15:22 51°10.797 2°40.409 14.8402 0.023788 0.159257 1.193347
2009-12-17 09:15:27 51°10.793 2°40.402 14.8434 0.023788 0.159253 1.228171
2009-12-17 09:15:32 51°10.789 2°40.396 14.8488 0.023891 0.159964 1.193347
2009-12-17 09:15:37 51°10.786 2°40.389 14.8469 0.023891 0.159964 1.193347
2009-12-17 09:15:42 51°10.782 2°40.383 14.8521 0.023685 0.158553 1.193347
2009-12-17 09:15:47 51°10.778 2°40.377 14.8499 0.023994 0.16066 1.193347
2009-12-17 09:15:52 51°10.775 2°40.37 14.8516 0.023788 0.159257 1.193347
2009-12-17 09:15:57 51°10.771 2°40.363 14.8521 0.023582 0.157853 1.193347
2009-12-17 09:16:02 51°10.768 2°40.356 14.8539 0.023582 0.157853 1.193347
2009-12-17 09:16:07 51°10.764 2°40.349 14.8534 0.023685 0.15856 1.193347
2009-12-17 09:16:12 51°10.761 2°40.342 14.8565 0.024097 0.161386 1.193347
2009-12-17 09:16:17 51°10.757 2°40.335 14.8584 0.023994 0.160682 1.193347
2009-12-17 09:16:22 51°10.754 2°40.328 14.8611 0.023685 0.158575 1.193347
2009-12-17 09:16:27 51°10.75 2°40.321 14.8672 0.024509 0.164215 1.193347
2009-12-17 09:16:32 51°10.747 2°40.314 14.8632 0.024509 0.164215 1.193347
2009-12-17 09:16:37 51°10.744 2°40.306 14.8666 0.023788 0.159285 1.193347
2009-12-17 09:16:42 51°10.741 2°40.299 14.8697 0.023479 0.157157 1.193347
2009-12-17 09:16:47 51°10.737 2°40.291 14.8696 0.022862 0.15293 1.193347
2009-12-17 09:16:52 51°10.734 2°40.284 14.8685 0.022759 0.152224 1.193347
2009-12-17 09:16:57 51°10.731 2°40.276 14.8726 0.023685 0.158549 1.193347
2009-12-17 09:17:02 51°10.728 2°40.269 14.8759 0.023274 0.15574 1.193347
2009-12-17 09:17:07 51°10.725 2°40.261 14.8749 0.023274 0.15574 1.193347
2009-12-17 09:17:12 51°10.722 2°40.254 14.8786 0.023377 0.156457 1.193347
2009-12-17 09:17:17 51°10.719 2°40.246 14.877 0.022965 0.153646 1.193347
2009-12-17 09:17:22 51°10.716 2°40.238 14.8801 0.022965 0.15365 1.193347
2009-12-17 09:17:27 51°10.713 2°40.23 14.8819 0.022965 0.15365 1.228171
2009-12-17 09:17:32 51°10.71 2°40.223 14.8839 0.023377 0.156468 1.193347
2009-12-17 09:17:37 51°10.707 2°40.215 14.8846 0.023377 0.156468 1.193347
2009-12-17 09:17:42 51°10.705 2°40.207 14.8854 0.023377 0.156472 1.193347
2009-12-17 09:17:47 51°10.702 2°40.199 14.8885 0.023274 0.155772 1.193347
2009-12-17 09:17:52 51°10.699 2°40.192 14.8899 0.023274 0.155779 1.193347
2009-12-17 09:17:57 51°10.696 2°40.184 14.8919 0.022553 0.150844 1.193347
2009-12-17 09:18:02 51°10.693 2°40.176 14.8938 0.022553 0.150844 1.193347
2009-12-17 09:18:07 51°10.691 2°40.168 14.8945 0.022862 0.152951 1.193347
2009-12-17 09:18:12 51°10.688 2°40.16 14.8957 0.023068 0.154366 1.193347
2009-12-17 09:18:17 51°10.685 2°40.152 14.8969 0.022759 0.152262 1.193347
2009-12-17 09:18:22 51°10.682 2°40.145 14.8987 0.022553 0.150858 1.193347
2009-12-17 09:18:27 51°10.679 2°40.137 14.9012 0.023685 0.15861 1.193347
2009-12-17 09:18:32 51°10.677 2°40.129 14.9023 0.023582 0.157917 1.193347
2009-12-17 09:18:37 51°10.674 2°40.121 14.9047 0.023582 0.157917 1.193347
2009-12-17 09:18:42 51°10.671 2°40.114 14.9072 0.024303 0.162857 1.193347
2009-12-17 09:18:47 51°10.668 2°40.106 14.9079 0.024509 0.164297 1.193347
2009-12-17 09:18:52 51°10.665 2°40.098 14.9089 0.024714 0.165711 1.193347
2009-12-17 09:18:57 51°10.662 2°40.091 14.9104 0.024611 0.164998 1.193347
2009-12-17 09:19:02 51°10.659 2°40.083 14.9122 0.023891 0.160047 1.193347
2009-12-17 09:19:07 51°10.656 2°40.075 14.8708 0.023891 0.160047 1.193347
2009-12-17 09:19:12 51°10.653 2°40.068 14.9116 0.026258 0.17631 1.193347
2009-12-17 09:19:17 51°10.65 2°40.06 14.914 0.022862 0.153002 1.193347
2009-12-17 09:19:22 51°10.646 2°40.053 14.9121 0.023274 0.1558 1.193347
2009-12-17 09:19:27 51°10.644 2°40.045 14.9151 0.023068 0.154408 1.193347
2009-12-17 09:19:32 51°10.64 2°40.038 14.9178 0.023068 0.154408 1.193347
2009-12-17 09:19:37 51°10.637 2°40.03 14.9174 0.023377 0.156521 1.193347
2009-12-17 09:19:42 51°10.634 2°40.023 14.9176 0.023377 0.156535 1.193347
2009-12-17 09:19:47 51°10.631 2°40.015 14.9199 0.023171 0.155136 1.193347
2009-12-17 09:19:52 51°10.628 2°40.008 14.9203 0.023274 0.155846 1.193347
2009-12-17 09:19:57 51°10.625 2°40 14.925 0.023171 0.155146 1.193347
2009-12-17 09:20:02 51°10.622 2°39.993 14.9286 0.023171 0.155146 1.193347
2009-12-17 09:20:07 51°10.619 2°39.986 14.93 0.022142 0.148097 1.228171
2009-12-17 09:20:12 51°10.617 2°39.978 14.9311 0.022142 0.148058 1.193347
2009-12-17 09:20:17 51°10.614 2°39.97 14.9332 0.022347 0.149451 1.193347
2009-12-17 09:20:22 51°10.611 2°39.963 14.9345 0.023068 0.154415 1.228171
2009-12-17 09:20:27 51°10.608 2°39.956 14.935 0.022862 0.153016 1.228171
2009-12-17 09:20:32 51°10.605 2°39.948 14.9355 0.023171 0.155132 1.193347
2009-12-17 09:20:37 51°10.602 2°39.941 14.939 0.023171 0.155132 1.193347
2009-12-17 09:20:42 51°10.599 2°39.933 14.9402 0.023685 0.158657 1.193347
2009-12-17 09:20:47 51°10.596 2°39.926 14.942 0.023068 0.154436 1.193347
2009-12-17 09:20:52 51°10.593 2°39.918 14.9455 0.023377 0.156542 1.193347
2009-12-17 09:20:57 51°10.59 2°39.911 14.9468 0.023685 0.158661 1.193347
2009-12-17 09:21:02 51°10.587 2°39.904 14.9484 0.023377 0.156553 1.193347
2009-12-17 09:21:07 51°10.585 2°39.896 14.9503 0.023377 0.156553 1.193347
2009-12-17 09:21:12 51°10.581 2°39.89 14.951 0.023994 0.16078 1.193347
2009-12-17 09:21:17 51°10.579 2°39.883 14.952 0.023582 0.157967 1.228171
2009-12-17 09:21:22 51°10.576 2°39.876 14.9534 0.023891 0.160076 1.193347
2009-12-17 09:21:27 51°10.573 2°39.869 14.9566 0.024097 0.161485 1.193347
2009-12-17 09:21:32 51°10.571 2°39.861 14.959 0.024097 0.161485 1.193347
2009-12-17 09:21:37 51°10.568 2°39.855 14.9598 0.024097 0.161492 1.193347
2009-12-17 09:21:42 51°10.565 2°39.848 14.9622 0.023788 0.159368 1.193347
2009-12-17 09:21:47 51°10.563 2°39.841 14.9642 0.023274 0.155842 1.193347
2009-12-17 09:21:52 51°10.56 2°39.834 14.9667 0.023685 0.158653 1.193347
2009-12-17 09:21:57 51°10.557 2°39.827 14.967 0.024817 0.166405 1.193347
2009-12-17 09:22:02 51°10.555 2°39.82 14.9678 0.025332 0.169996 1.193347
2009-12-17 09:22:07 51°10.552 2°39.813 14.9705 0.025332 0.169996 1.193347
2009-12-17 09:22:12 51°10.55 2°39.806 14.9729 0.025332 0.170023 1.193347
2009-12-17 09:22:17 51°10.548 2°39.799 14.9747 0.02492 0.167198 1.193347
2009-12-17 09:22:22 51°10.545 2°39.792 14.9752 0.025229 0.169313 1.193347
2009-12-17 09:22:27 51°10.543 2°39.785 14.9772 0.025023 0.167896 1.193347
2009-12-17 09:22:32 51°10.541 2°39.778 14.9787 0.025023 0.167885 1.193347
2009-12-17 09:22:37 51°10.538 2°39.771 14.9796 0.025023 0.167885 1.193347
2009-12-17 09:22:42 51°10.536 2°39.763 14.9821 0.024714 0.165756 1.193347
2009-12-17 09:22:47 51°10.535 2°39.756 14.98 0.02492 0.16716 1.193347
2009-12-17 09:22:52 51°10.532 2°39.749 14.9863 0.02492 0.167152 1.193347
2009-12-17 09:22:57 51°10.53 2°39.741 14.9894 0.025435 0.170679 1.193347
2009-12-17 09:23:02 51°10.528 2°39.734 14.9906 0.025538 0.171389 1.193347
2009-12-17 09:23:07 51°10.526 2°39.727 14.9909 0.025538 0.171389 1.193347
2009-12-17 09:23:12 51°10.524 2°39.72 14.9918 0.025332 0.169972 1.193347
2009-12-17 09:23:17 51°10.522 2°39.713 14.9945 0.024406 0.163618 1.193347